<?xml version="1.0" encoding="UTF-8" standalone="no" ?>
<gpx xmlns="http://www.topografix.com/GPX/1/1" xmlns:xsi="http://www.w3.org/2001/XMLSchema-instance" xsi:schemaLocation="http://www.topografix.com/GPX/1/1 http://www.topografix.com/GPX/1/1/gpx.xsd" version="1.1" creator="VisuGPX - https://www.visugpx.com">
  <metadata>
    <name>L Aulp Du Seuil</name>
    <desc><![CDATA[grp_trc:[nouvelles]]]></desc>
  </metadata>
  <trk>
    <name><![CDATA[9 oct. 2021 à 14:20:18]]></name>
    <cmt><![CDATA[9 oct. 2021 à 14:20:18]]></cmt>
    <trkseg>
      <trkpt lat="45.63939" lon="6.20385">
        <ele>858</ele>
        <time>2021-10-09T12:20:47Z</time>
      </trkpt>
      <trkpt lat="45.63931" lon="6.20379">
        <ele>863</ele>
        <time>2021-10-09T12:20:58Z</time>
      </trkpt>
      <trkpt lat="45.63917" lon="6.2036">
        <ele>864</ele>
        <time>2021-10-09T12:21:08Z</time>
      </trkpt>
      <trkpt lat="45.63908" lon="6.20344">
        <ele>868</ele>
        <time>2021-10-09T12:21:14Z</time>
      </trkpt>
      <trkpt lat="45.63879" lon="6.20335">
        <ele>866</ele>
        <time>2021-10-09T12:21:31Z</time>
      </trkpt>
      <trkpt lat="45.63844" lon="6.20321">
        <ele>868</ele>
        <time>2021-10-09T12:21:38Z</time>
      </trkpt>
      <trkpt lat="45.6382" lon="6.20307">
        <ele>873</ele>
        <time>2021-10-09T12:21:53Z</time>
      </trkpt>
      <trkpt lat="45.63807" lon="6.20296">
        <ele>872</ele>
        <time>2021-10-09T12:22:03Z</time>
      </trkpt>
      <trkpt lat="45.63798" lon="6.2028">
        <ele>874</ele>
        <time>2021-10-09T12:22:19Z</time>
      </trkpt>
      <trkpt lat="45.63788" lon="6.20263">
        <ele>875</ele>
        <time>2021-10-09T12:22:28Z</time>
      </trkpt>
      <trkpt lat="45.63776" lon="6.20249">
        <ele>876</ele>
        <time>2021-10-09T12:22:38Z</time>
      </trkpt>
      <trkpt lat="45.63735" lon="6.2022">
        <ele>885</ele>
        <time>2021-10-09T12:23:14Z</time>
      </trkpt>
      <trkpt lat="45.63728" lon="6.202">
        <ele>884</ele>
        <time>2021-10-09T12:23:25Z</time>
      </trkpt>
      <trkpt lat="45.6372" lon="6.20182">
        <ele>889</ele>
        <time>2021-10-09T12:23:38Z</time>
      </trkpt>
      <trkpt lat="45.63714" lon="6.2016">
        <ele>891</ele>
        <time>2021-10-09T12:23:52Z</time>
      </trkpt>
      <trkpt lat="45.63708" lon="6.20142">
        <ele>891</ele>
        <time>2021-10-09T12:24:04Z</time>
      </trkpt>
      <trkpt lat="45.63697" lon="6.20128">
        <ele>895</ele>
        <time>2021-10-09T12:24:17Z</time>
      </trkpt>
      <trkpt lat="45.63683" lon="6.2012">
        <ele>895</ele>
        <time>2021-10-09T12:24:27Z</time>
      </trkpt>
      <trkpt lat="45.6367" lon="6.20107">
        <ele>898</ele>
        <time>2021-10-09T12:24:40Z</time>
      </trkpt>
      <trkpt lat="45.63659" lon="6.20091">
        <ele>898</ele>
        <time>2021-10-09T12:24:55Z</time>
      </trkpt>
      <trkpt lat="45.63647" lon="6.20079">
        <ele>903</ele>
        <time>2021-10-09T12:25:06Z</time>
      </trkpt>
      <trkpt lat="45.63641" lon="6.20058">
        <ele>904</ele>
        <time>2021-10-09T12:25:16Z</time>
      </trkpt>
      <trkpt lat="45.63637" lon="6.20038">
        <ele>902</ele>
        <time>2021-10-09T12:25:28Z</time>
      </trkpt>
      <trkpt lat="45.63635" lon="6.2005">
        <ele>911</ele>
        <time>2021-10-09T12:26:31Z</time>
      </trkpt>
      <trkpt lat="45.63629" lon="6.20075">
        <ele>916</ele>
        <time>2021-10-09T12:26:57Z</time>
      </trkpt>
      <trkpt lat="45.63624" lon="6.20108">
        <ele>922</ele>
        <time>2021-10-09T12:27:24Z</time>
      </trkpt>
      <trkpt lat="45.63639" lon="6.20149">
        <ele>925</ele>
        <time>2021-10-09T12:27:52Z</time>
      </trkpt>
      <trkpt lat="45.6366" lon="6.20179">
        <ele>925</ele>
        <time>2021-10-09T12:28:20Z</time>
      </trkpt>
      <trkpt lat="45.63677" lon="6.20252">
        <ele>938</ele>
        <time>2021-10-09T12:29:23Z</time>
      </trkpt>
      <trkpt lat="45.63691" lon="6.2033">
        <ele>951</ele>
        <time>2021-10-09T12:30:32Z</time>
      </trkpt>
      <trkpt lat="45.63692" lon="6.20394">
        <ele>959</ele>
        <time>2021-10-09T12:31:27Z</time>
      </trkpt>
      <trkpt lat="45.63671" lon="6.20378">
        <ele>978</ele>
        <time>2021-10-09T12:33:15Z</time>
      </trkpt>
      <trkpt lat="45.63662" lon="6.2036">
        <ele>980</ele>
        <time>2021-10-09T12:33:28Z</time>
      </trkpt>
      <trkpt lat="45.63638" lon="6.2033">
        <ele>983</ele>
        <time>2021-10-09T12:33:53Z</time>
      </trkpt>
      <trkpt lat="45.63635" lon="6.20323">
        <ele>985</ele>
        <time>2021-10-09T12:33:58Z</time>
      </trkpt>
      <trkpt lat="45.63632" lon="6.20316">
        <ele>985</ele>
        <time>2021-10-09T12:34:02Z</time>
      </trkpt>
      <trkpt lat="45.6362" lon="6.20304">
        <ele>987</ele>
        <time>2021-10-09T12:34:15Z</time>
      </trkpt>
      <trkpt lat="45.63616" lon="6.20294">
        <ele>988</ele>
        <time>2021-10-09T12:34:22Z</time>
      </trkpt>
      <trkpt lat="45.63593" lon="6.2026">
        <ele>993</ele>
        <time>2021-10-09T12:34:57Z</time>
      </trkpt>
      <trkpt lat="45.63586" lon="6.20255">
        <ele>995</ele>
        <time>2021-10-09T12:35:05Z</time>
      </trkpt>
      <trkpt lat="45.63556" lon="6.20204">
        <ele>1001</ele>
        <time>2021-10-09T12:35:39Z</time>
      </trkpt>
      <trkpt lat="45.63546" lon="6.20191">
        <ele>1002</ele>
        <time>2021-10-09T12:35:49Z</time>
      </trkpt>
      <trkpt lat="45.63533" lon="6.20179">
        <ele>1004</ele>
        <time>2021-10-09T12:36:00Z</time>
      </trkpt>
      <trkpt lat="45.63528" lon="6.20173">
        <ele>1005</ele>
        <time>2021-10-09T12:36:05Z</time>
      </trkpt>
      <trkpt lat="45.63493" lon="6.20159">
        <ele>1011</ele>
        <time>2021-10-09T12:36:37Z</time>
      </trkpt>
      <trkpt lat="45.63484" lon="6.2016">
        <ele>1013</ele>
        <time>2021-10-09T12:36:46Z</time>
      </trkpt>
      <trkpt lat="45.63487" lon="6.20166">
        <ele>1014</ele>
        <time>2021-10-09T12:36:56Z</time>
      </trkpt>
      <trkpt lat="45.63493" lon="6.20173">
        <ele>1015</ele>
        <time>2021-10-09T12:37:03Z</time>
      </trkpt>
      <trkpt lat="45.63507" lon="6.20182">
        <ele>1017</ele>
        <time>2021-10-09T12:37:20Z</time>
      </trkpt>
      <trkpt lat="45.63514" lon="6.2019">
        <ele>1019</ele>
        <time>2021-10-09T12:37:27Z</time>
      </trkpt>
      <trkpt lat="45.63521" lon="6.20197">
        <ele>1020</ele>
        <time>2021-10-09T12:37:32Z</time>
      </trkpt>
      <trkpt lat="45.63528" lon="6.20205">
        <ele>1021</ele>
        <time>2021-10-09T12:37:40Z</time>
      </trkpt>
      <trkpt lat="45.63534" lon="6.20213">
        <ele>1022</ele>
        <time>2021-10-09T12:37:47Z</time>
      </trkpt>
      <trkpt lat="45.63538" lon="6.20222">
        <ele>1023</ele>
        <time>2021-10-09T12:37:55Z</time>
      </trkpt>
      <trkpt lat="45.6354" lon="6.20233">
        <ele>1025</ele>
        <time>2021-10-09T12:38:01Z</time>
      </trkpt>
      <trkpt lat="45.63544" lon="6.20242">
        <ele>1025</ele>
        <time>2021-10-09T12:38:06Z</time>
      </trkpt>
      <trkpt lat="45.63538" lon="6.20299">
        <ele>1030</ele>
        <time>2021-10-09T12:38:36Z</time>
      </trkpt>
      <trkpt lat="45.6354" lon="6.2032">
        <ele>1032</ele>
        <time>2021-10-09T12:38:47Z</time>
      </trkpt>
      <trkpt lat="45.63546" lon="6.20338">
        <ele>1034</ele>
        <time>2021-10-09T12:39:00Z</time>
      </trkpt>
      <trkpt lat="45.63542" lon="6.20332">
        <ele>1042</ele>
        <time>2021-10-09T12:39:45Z</time>
      </trkpt>
      <trkpt lat="45.63533" lon="6.20315">
        <ele>1042</ele>
        <time>2021-10-09T12:39:58Z</time>
      </trkpt>
      <trkpt lat="45.6353" lon="6.20309">
        <ele>1045</ele>
        <time>2021-10-09T12:40:02Z</time>
      </trkpt>
      <trkpt lat="45.63526" lon="6.203">
        <ele>1045</ele>
        <time>2021-10-09T12:40:08Z</time>
      </trkpt>
      <trkpt lat="45.63523" lon="6.20293">
        <ele>1047</ele>
        <time>2021-10-09T12:40:13Z</time>
      </trkpt>
      <trkpt lat="45.6352" lon="6.20284">
        <ele>1047</ele>
        <time>2021-10-09T12:40:19Z</time>
      </trkpt>
      <trkpt lat="45.63514" lon="6.20276">
        <ele>1047</ele>
        <time>2021-10-09T12:40:26Z</time>
      </trkpt>
      <trkpt lat="45.6351" lon="6.20267">
        <ele>1048</ele>
        <time>2021-10-09T12:40:34Z</time>
      </trkpt>
      <trkpt lat="45.63494" lon="6.20248">
        <ele>1052</ele>
        <time>2021-10-09T12:40:54Z</time>
      </trkpt>
      <trkpt lat="45.63487" lon="6.20245">
        <ele>1053</ele>
        <time>2021-10-09T12:41:01Z</time>
      </trkpt>
      <trkpt lat="45.6348" lon="6.20245">
        <ele>1052</ele>
        <time>2021-10-09T12:41:05Z</time>
      </trkpt>
      <trkpt lat="45.63475" lon="6.20248">
        <ele>1054</ele>
        <time>2021-10-09T12:41:09Z</time>
      </trkpt>
      <trkpt lat="45.63469" lon="6.20247">
        <ele>1052</ele>
        <time>2021-10-09T12:41:13Z</time>
      </trkpt>
      <trkpt lat="45.63462" lon="6.20247">
        <ele>1053</ele>
        <time>2021-10-09T12:41:18Z</time>
      </trkpt>
      <trkpt lat="45.63456" lon="6.20249">
        <ele>1055</ele>
        <time>2021-10-09T12:41:23Z</time>
      </trkpt>
      <trkpt lat="45.63458" lon="6.20257">
        <ele>1056</ele>
        <time>2021-10-09T12:41:34Z</time>
      </trkpt>
      <trkpt lat="45.63492" lon="6.20295">
        <ele>1067</ele>
        <time>2021-10-09T12:42:30Z</time>
      </trkpt>
      <trkpt lat="45.63476" lon="6.20297">
        <ele>1071</ele>
        <time>2021-10-09T12:43:06Z</time>
      </trkpt>
      <trkpt lat="45.63466" lon="6.20313">
        <ele>1082</ele>
        <time>2021-10-09T12:43:55Z</time>
      </trkpt>
      <trkpt lat="45.63457" lon="6.20317">
        <ele>1086</ele>
        <time>2021-10-09T12:44:13Z</time>
      </trkpt>
      <trkpt lat="45.63476" lon="6.20338">
        <ele>1091</ele>
        <time>2021-10-09T12:44:44Z</time>
      </trkpt>
      <trkpt lat="45.6347" lon="6.20349">
        <ele>1098</ele>
        <time>2021-10-09T12:45:10Z</time>
      </trkpt>
      <trkpt lat="45.63465" lon="6.20359">
        <ele>1100</ele>
        <time>2021-10-09T12:45:22Z</time>
      </trkpt>
      <trkpt lat="45.63458" lon="6.20363">
        <ele>1101</ele>
        <time>2021-10-09T12:45:30Z</time>
      </trkpt>
      <trkpt lat="45.63449" lon="6.20363">
        <ele>1104</ele>
        <time>2021-10-09T12:45:44Z</time>
      </trkpt>
      <trkpt lat="45.63438" lon="6.20367">
        <ele>1107</ele>
        <time>2021-10-09T12:45:57Z</time>
      </trkpt>
      <trkpt lat="45.6343" lon="6.20373">
        <ele>1108</ele>
        <time>2021-10-09T12:46:10Z</time>
      </trkpt>
      <trkpt lat="45.63424" lon="6.20395">
        <ele>1111</ele>
        <time>2021-10-09T12:46:29Z</time>
      </trkpt>
      <trkpt lat="45.63442" lon="6.20399">
        <ele>1116</ele>
        <time>2021-10-09T12:46:48Z</time>
      </trkpt>
      <trkpt lat="45.63457" lon="6.2041">
        <ele>1121</ele>
        <time>2021-10-09T12:47:14Z</time>
      </trkpt>
      <trkpt lat="45.63452" lon="6.20422">
        <ele>1136</ele>
        <time>2021-10-09T12:48:28Z</time>
      </trkpt>
      <trkpt lat="45.63444" lon="6.20448">
        <ele>1145</ele>
        <time>2021-10-09T12:49:13Z</time>
      </trkpt>
      <trkpt lat="45.63433" lon="6.20467">
        <ele>1149</ele>
        <time>2021-10-09T12:49:38Z</time>
      </trkpt>
      <trkpt lat="45.63417" lon="6.20491">
        <ele>1153</ele>
        <time>2021-10-09T12:50:08Z</time>
      </trkpt>
      <trkpt lat="45.63432" lon="6.20494">
        <ele>1157</ele>
        <time>2021-10-09T12:50:25Z</time>
      </trkpt>
      <trkpt lat="45.63448" lon="6.20496">
        <ele>1165</ele>
        <time>2021-10-09T12:50:56Z</time>
      </trkpt>
      <trkpt lat="45.63465" lon="6.20507">
        <ele>1170</ele>
        <time>2021-10-09T12:51:29Z</time>
      </trkpt>
      <trkpt lat="45.6345" lon="6.20522">
        <ele>1179</ele>
        <time>2021-10-09T12:52:22Z</time>
      </trkpt>
      <trkpt lat="45.63451" lon="6.20539">
        <ele>1186</ele>
        <time>2021-10-09T12:53:14Z</time>
      </trkpt>
      <trkpt lat="45.63462" lon="6.20555">
        <ele>1189</ele>
        <time>2021-10-09T12:53:26Z</time>
      </trkpt>
      <trkpt lat="45.6347" lon="6.20573">
        <ele>1193</ele>
        <time>2021-10-09T12:53:48Z</time>
      </trkpt>
      <trkpt lat="45.6348" lon="6.20589">
        <ele>1195</ele>
        <time>2021-10-09T12:54:03Z</time>
      </trkpt>
      <trkpt lat="45.63487" lon="6.2063">
        <ele>1201</ele>
        <time>2021-10-09T12:54:38Z</time>
      </trkpt>
      <trkpt lat="45.63492" lon="6.20693">
        <ele>1207</ele>
        <time>2021-10-09T12:55:16Z</time>
      </trkpt>
      <trkpt lat="45.63482" lon="6.20693">
        <ele>1217</ele>
        <time>2021-10-09T12:56:13Z</time>
      </trkpt>
      <trkpt lat="45.63474" lon="6.20699">
        <ele>1227</ele>
        <time>2021-10-09T12:57:04Z</time>
      </trkpt>
      <trkpt lat="45.63464" lon="6.20698">
        <ele>1231</ele>
        <time>2021-10-09T12:57:18Z</time>
      </trkpt>
      <trkpt lat="45.63456" lon="6.20698">
        <ele>1232</ele>
        <time>2021-10-09T12:57:27Z</time>
      </trkpt>
      <trkpt lat="45.6345" lon="6.20701">
        <ele>1233</ele>
        <time>2021-10-09T12:57:33Z</time>
      </trkpt>
      <trkpt lat="45.63442" lon="6.20703">
        <ele>1235</ele>
        <time>2021-10-09T12:57:40Z</time>
      </trkpt>
      <trkpt lat="45.63446" lon="6.20713">
        <ele>1236</ele>
        <time>2021-10-09T12:57:55Z</time>
      </trkpt>
      <trkpt lat="45.63455" lon="6.20739">
        <ele>1242</ele>
        <time>2021-10-09T12:58:19Z</time>
      </trkpt>
      <trkpt lat="45.63444" lon="6.20743">
        <ele>1250</ele>
        <time>2021-10-09T12:59:06Z</time>
      </trkpt>
      <trkpt lat="45.63436" lon="6.20756">
        <ele>1256</ele>
        <time>2021-10-09T12:59:36Z</time>
      </trkpt>
      <trkpt lat="45.63434" lon="6.20767">
        <ele>1261</ele>
        <time>2021-10-09T12:59:54Z</time>
      </trkpt>
      <trkpt lat="45.63428" lon="6.20774">
        <ele>1264</ele>
        <time>2021-10-09T13:00:12Z</time>
      </trkpt>
      <trkpt lat="45.6342" lon="6.20807">
        <ele>1271</ele>
        <time>2021-10-09T13:00:43Z</time>
      </trkpt>
      <trkpt lat="45.63418" lon="6.20814">
        <ele>1270</ele>
        <time>2021-10-09T13:00:48Z</time>
      </trkpt>
      <trkpt lat="45.63417" lon="6.20827">
        <ele>1273</ele>
        <time>2021-10-09T13:00:57Z</time>
      </trkpt>
      <trkpt lat="45.63416" lon="6.20838">
        <ele>1273</ele>
        <time>2021-10-09T13:01:05Z</time>
      </trkpt>
      <trkpt lat="45.63414" lon="6.20848">
        <ele>1275</ele>
        <time>2021-10-09T13:01:14Z</time>
      </trkpt>
      <trkpt lat="45.63413" lon="6.20857">
        <ele>1275</ele>
        <time>2021-10-09T13:01:19Z</time>
      </trkpt>
      <trkpt lat="45.6341" lon="6.20863">
        <ele>1277</ele>
        <time>2021-10-09T13:01:24Z</time>
      </trkpt>
      <trkpt lat="45.63407" lon="6.20871">
        <ele>1277</ele>
        <time>2021-10-09T13:01:28Z</time>
      </trkpt>
      <trkpt lat="45.63403" lon="6.20876">
        <ele>1278</ele>
        <time>2021-10-09T13:01:33Z</time>
      </trkpt>
      <trkpt lat="45.634" lon="6.20884">
        <ele>1280</ele>
        <time>2021-10-09T13:01:41Z</time>
      </trkpt>
      <trkpt lat="45.63406" lon="6.20885">
        <ele>1281</ele>
        <time>2021-10-09T13:01:48Z</time>
      </trkpt>
      <trkpt lat="45.63414" lon="6.20891">
        <ele>1282</ele>
        <time>2021-10-09T13:01:57Z</time>
      </trkpt>
      <trkpt lat="45.63422" lon="6.20894">
        <ele>1286</ele>
        <time>2021-10-09T13:02:07Z</time>
      </trkpt>
      <trkpt lat="45.63429" lon="6.20891">
        <ele>1286</ele>
        <time>2021-10-09T13:02:16Z</time>
      </trkpt>
      <trkpt lat="45.63435" lon="6.20889">
        <ele>1289</ele>
        <time>2021-10-09T13:02:22Z</time>
      </trkpt>
      <trkpt lat="45.63438" lon="6.20893">
        <ele>1293</ele>
        <time>2021-10-09T13:02:40Z</time>
      </trkpt>
      <trkpt lat="45.63434" lon="6.20904">
        <ele>1295</ele>
        <time>2021-10-09T13:02:52Z</time>
      </trkpt>
      <trkpt lat="45.63428" lon="6.2091">
        <ele>1298</ele>
        <time>2021-10-09T13:03:04Z</time>
      </trkpt>
      <trkpt lat="45.63425" lon="6.2092">
        <ele>1301</ele>
        <time>2021-10-09T13:03:17Z</time>
      </trkpt>
      <trkpt lat="45.63424" lon="6.2093">
        <ele>1304</ele>
        <time>2021-10-09T13:03:33Z</time>
      </trkpt>
      <trkpt lat="45.63433" lon="6.20937">
        <ele>1307</ele>
        <time>2021-10-09T13:03:47Z</time>
      </trkpt>
      <trkpt lat="45.63434" lon="6.20959">
        <ele>1317</ele>
        <time>2021-10-09T13:04:36Z</time>
      </trkpt>
      <trkpt lat="45.63433" lon="6.20973">
        <ele>1323</ele>
        <time>2021-10-09T13:05:06Z</time>
      </trkpt>
      <trkpt lat="45.63411" lon="6.20993">
        <ele>1328</ele>
        <time>2021-10-09T13:05:38Z</time>
      </trkpt>
      <trkpt lat="45.63414" lon="6.21002">
        <ele>1331</ele>
        <time>2021-10-09T13:05:47Z</time>
      </trkpt>
      <trkpt lat="45.63421" lon="6.21009">
        <ele>1334</ele>
        <time>2021-10-09T13:05:54Z</time>
      </trkpt>
      <trkpt lat="45.63428" lon="6.21009">
        <ele>1333</ele>
        <time>2021-10-09T13:06:01Z</time>
      </trkpt>
      <trkpt lat="45.63447" lon="6.21014">
        <ele>1338</ele>
        <time>2021-10-09T13:06:23Z</time>
      </trkpt>
      <trkpt lat="45.63455" lon="6.2103">
        <ele>1343</ele>
        <time>2021-10-09T13:06:55Z</time>
      </trkpt>
      <trkpt lat="45.63426" lon="6.21052">
        <ele>1354</ele>
        <time>2021-10-09T13:07:43Z</time>
      </trkpt>
      <trkpt lat="45.6342" lon="6.21072">
        <ele>1359</ele>
        <time>2021-10-09T13:08:02Z</time>
      </trkpt>
      <trkpt lat="45.63406" lon="6.21081">
        <ele>1363</ele>
        <time>2021-10-09T13:08:27Z</time>
      </trkpt>
      <trkpt lat="45.6343" lon="6.21107">
        <ele>1377</ele>
        <time>2021-10-09T13:09:45Z</time>
      </trkpt>
      <trkpt lat="45.63406" lon="6.21135">
        <ele>1390</ele>
        <time>2021-10-09T13:10:46Z</time>
      </trkpt>
      <trkpt lat="45.63444" lon="6.21153">
        <ele>1399</ele>
        <time>2021-10-09T13:11:38Z</time>
      </trkpt>
      <trkpt lat="45.63421" lon="6.21186">
        <ele>1412</ele>
        <time>2021-10-09T13:12:45Z</time>
      </trkpt>
      <trkpt lat="45.63444" lon="6.21211">
        <ele>1421</ele>
        <time>2021-10-09T13:13:34Z</time>
      </trkpt>
      <trkpt lat="45.63427" lon="6.21227">
        <ele>1428</ele>
        <time>2021-10-09T13:14:08Z</time>
      </trkpt>
      <trkpt lat="45.63413" lon="6.21236">
        <ele>1432</ele>
        <time>2021-10-09T13:14:33Z</time>
      </trkpt>
      <trkpt lat="45.63398" lon="6.21287">
        <ele>1439</ele>
        <time>2021-10-09T13:15:16Z</time>
      </trkpt>
      <trkpt lat="45.63389" lon="6.21324">
        <ele>1447</ele>
        <time>2021-10-09T13:15:48Z</time>
      </trkpt>
      <trkpt lat="45.63409" lon="6.21335">
        <ele>1453</ele>
        <time>2021-10-09T13:16:22Z</time>
      </trkpt>
      <trkpt lat="45.63423" lon="6.21331">
        <ele>1457</ele>
        <time>2021-10-09T13:16:37Z</time>
      </trkpt>
      <trkpt lat="45.6342" lon="6.21355">
        <ele>1471</ele>
        <time>2021-10-09T13:17:53Z</time>
      </trkpt>
      <trkpt lat="45.63412" lon="6.21373">
        <ele>1473</ele>
        <time>2021-10-09T13:18:15Z</time>
      </trkpt>
      <trkpt lat="45.63399" lon="6.21419">
        <ele>1483</ele>
        <time>2021-10-09T13:18:59Z</time>
      </trkpt>
      <trkpt lat="45.63392" lon="6.21441">
        <ele>1488</ele>
        <time>2021-10-09T13:19:30Z</time>
      </trkpt>
      <trkpt lat="45.63384" lon="6.2146">
        <ele>1493</ele>
        <time>2021-10-09T13:19:54Z</time>
      </trkpt>
      <trkpt lat="45.63395" lon="6.21471">
        <ele>1503</ele>
        <time>2021-10-09T13:20:46Z</time>
      </trkpt>
      <trkpt lat="45.63408" lon="6.21471">
        <ele>1506</ele>
        <time>2021-10-09T13:21:05Z</time>
      </trkpt>
      <trkpt lat="45.63424" lon="6.21487">
        <ele>1512</ele>
        <time>2021-10-09T13:21:40Z</time>
      </trkpt>
      <trkpt lat="45.6342" lon="6.21511">
        <ele>1517</ele>
        <time>2021-10-09T13:22:04Z</time>
      </trkpt>
      <trkpt lat="45.634" lon="6.21511">
        <ele>1523</ele>
        <time>2021-10-09T13:22:42Z</time>
      </trkpt>
      <trkpt lat="45.63381" lon="6.21543">
        <ele>1529</ele>
        <time>2021-10-09T13:23:23Z</time>
      </trkpt>
      <trkpt lat="45.63369" lon="6.21553">
        <ele>1532</ele>
        <time>2021-10-09T13:23:38Z</time>
      </trkpt>
      <trkpt lat="45.63383" lon="6.21567">
        <ele>1539</ele>
        <time>2021-10-09T13:24:15Z</time>
      </trkpt>
      <trkpt lat="45.63386" lon="6.21585">
        <ele>1547</ele>
        <time>2021-10-09T13:24:54Z</time>
      </trkpt>
      <trkpt lat="45.63367" lon="6.21586">
        <ele>1551</ele>
        <time>2021-10-09T13:25:21Z</time>
      </trkpt>
      <trkpt lat="45.6335" lon="6.21604">
        <ele>1558</ele>
        <time>2021-10-09T13:25:53Z</time>
      </trkpt>
      <trkpt lat="45.63335" lon="6.21613">
        <ele>1558</ele>
        <time>2021-10-09T13:26:08Z</time>
      </trkpt>
      <trkpt lat="45.63306" lon="6.21623">
        <ele>1566</ele>
        <time>2021-10-09T13:26:43Z</time>
      </trkpt>
      <trkpt lat="45.63296" lon="6.21639">
        <ele>1570</ele>
        <time>2021-10-09T13:27:06Z</time>
      </trkpt>
      <trkpt lat="45.63284" lon="6.21679">
        <ele>1578</ele>
        <time>2021-10-09T13:27:51Z</time>
      </trkpt>
      <trkpt lat="45.63284" lon="6.21707">
        <ele>1585</ele>
        <time>2021-10-09T13:28:22Z</time>
      </trkpt>
      <trkpt lat="45.63302" lon="6.21697">
        <ele>1594</ele>
        <time>2021-10-09T13:29:09Z</time>
      </trkpt>
      <trkpt lat="45.63316" lon="6.217">
        <ele>1601</ele>
        <time>2021-10-09T13:29:41Z</time>
      </trkpt>
      <trkpt lat="45.63328" lon="6.21712">
        <ele>1610</ele>
        <time>2021-10-09T13:30:26Z</time>
      </trkpt>
      <trkpt lat="45.63337" lon="6.21726">
        <ele>1618</ele>
        <time>2021-10-09T13:30:57Z</time>
      </trkpt>
      <trkpt lat="45.63342" lon="6.21731">
        <ele>1619</ele>
        <time>2021-10-09T13:31:15Z</time>
      </trkpt>
      <trkpt lat="45.63349" lon="6.21737">
        <ele>1624</ele>
        <time>2021-10-09T13:31:33Z</time>
      </trkpt>
      <trkpt lat="45.63354" lon="6.21736">
        <ele>1629</ele>
        <time>2021-10-09T13:31:50Z</time>
      </trkpt>
      <trkpt lat="45.63354" lon="6.21743">
        <ele>1629</ele>
        <time>2021-10-09T13:32:00Z</time>
      </trkpt>
      <trkpt lat="45.63352" lon="6.21748">
        <ele>1630</ele>
        <time>2021-10-09T13:32:06Z</time>
      </trkpt>
      <trkpt lat="45.63346" lon="6.21751">
        <ele>1631</ele>
        <time>2021-10-09T13:32:13Z</time>
      </trkpt>
      <trkpt lat="45.63343" lon="6.21759">
        <ele>1633</ele>
        <time>2021-10-09T13:32:22Z</time>
      </trkpt>
      <trkpt lat="45.63342" lon="6.21767">
        <ele>1634</ele>
        <time>2021-10-09T13:32:31Z</time>
      </trkpt>
      <trkpt lat="45.6334" lon="6.21776">
        <ele>1635</ele>
        <time>2021-10-09T13:32:43Z</time>
      </trkpt>
      <trkpt lat="45.63338" lon="6.21782">
        <ele>1637</ele>
        <time>2021-10-09T13:32:49Z</time>
      </trkpt>
      <trkpt lat="45.63339" lon="6.2179">
        <ele>1638</ele>
        <time>2021-10-09T13:32:56Z</time>
      </trkpt>
      <trkpt lat="45.63338" lon="6.21796">
        <ele>1638</ele>
        <time>2021-10-09T13:33:02Z</time>
      </trkpt>
      <trkpt lat="45.63338" lon="6.21802">
        <ele>1640</ele>
        <time>2021-10-09T13:33:06Z</time>
      </trkpt>
      <trkpt lat="45.63334" lon="6.21815">
        <ele>1643</ele>
        <time>2021-10-09T13:33:20Z</time>
      </trkpt>
      <trkpt lat="45.63336" lon="6.21823">
        <ele>1643</ele>
        <time>2021-10-09T13:33:28Z</time>
      </trkpt>
      <trkpt lat="45.63333" lon="6.21832">
        <ele>1645</ele>
        <time>2021-10-09T13:33:38Z</time>
      </trkpt>
      <trkpt lat="45.63334" lon="6.21842">
        <ele>1649</ele>
        <time>2021-10-09T13:33:52Z</time>
      </trkpt>
      <trkpt lat="45.63335" lon="6.21855">
        <ele>1653</ele>
        <time>2021-10-09T13:34:09Z</time>
      </trkpt>
      <trkpt lat="45.63336" lon="6.21865">
        <ele>1660</ele>
        <time>2021-10-09T13:34:35Z</time>
      </trkpt>
      <trkpt lat="45.63338" lon="6.21876">
        <ele>1659</ele>
        <time>2021-10-09T13:34:48Z</time>
      </trkpt>
      <trkpt lat="45.6334" lon="6.21884">
        <ele>1666</ele>
        <time>2021-10-09T13:35:12Z</time>
      </trkpt>
      <trkpt lat="45.63345" lon="6.21894">
        <ele>1672</ele>
        <time>2021-10-09T13:35:43Z</time>
      </trkpt>
      <trkpt lat="45.63345" lon="6.21905">
        <ele>1676</ele>
        <time>2021-10-09T13:36:07Z</time>
      </trkpt>
      <trkpt lat="45.63346" lon="6.21913">
        <ele>1682</ele>
        <time>2021-10-09T13:36:37Z</time>
      </trkpt>
      <trkpt lat="45.63349" lon="6.21923">
        <ele>1683</ele>
        <time>2021-10-09T13:36:49Z</time>
      </trkpt>
      <trkpt lat="45.63357" lon="6.21924">
        <ele>1687</ele>
        <time>2021-10-09T13:37:07Z</time>
      </trkpt>
      <trkpt lat="45.6336" lon="6.2193">
        <ele>1697</ele>
        <time>2021-10-09T13:37:49Z</time>
      </trkpt>
      <trkpt lat="45.63358" lon="6.2194">
        <ele>1701</ele>
        <time>2021-10-09T13:38:07Z</time>
      </trkpt>
      <trkpt lat="45.63361" lon="6.21943">
        <ele>1703</ele>
        <time>2021-10-09T13:38:31Z</time>
      </trkpt>
      <trkpt lat="45.63358" lon="6.21947">
        <ele>1705</ele>
        <time>2021-10-09T13:38:38Z</time>
      </trkpt>
      <trkpt lat="45.63356" lon="6.21953">
        <ele>1706</ele>
        <time>2021-10-09T13:38:45Z</time>
      </trkpt>
      <trkpt lat="45.63354" lon="6.21962">
        <ele>1705</ele>
        <time>2021-10-09T13:38:56Z</time>
      </trkpt>
      <trkpt lat="45.63354" lon="6.21968">
        <ele>1712</ele>
        <time>2021-10-09T13:39:06Z</time>
      </trkpt>
      <trkpt lat="45.63353" lon="6.21974">
        <ele>1710</ele>
        <time>2021-10-09T13:39:17Z</time>
      </trkpt>
      <trkpt lat="45.63349" lon="6.21987">
        <ele>1714</ele>
        <time>2021-10-09T13:39:32Z</time>
      </trkpt>
      <trkpt lat="45.6335" lon="6.21996">
        <ele>1715</ele>
        <time>2021-10-09T13:39:43Z</time>
      </trkpt>
      <trkpt lat="45.6335" lon="6.22002">
        <ele>1719</ele>
        <time>2021-10-09T13:40:01Z</time>
      </trkpt>
      <trkpt lat="45.63349" lon="6.22013">
        <ele>1723</ele>
        <time>2021-10-09T13:40:19Z</time>
      </trkpt>
      <trkpt lat="45.63353" lon="6.22021">
        <ele>1725</ele>
        <time>2021-10-09T13:40:36Z</time>
      </trkpt>
      <trkpt lat="45.63349" lon="6.22028">
        <ele>1732</ele>
        <time>2021-10-09T13:41:00Z</time>
      </trkpt>
      <trkpt lat="45.63348" lon="6.22036">
        <ele>1733</ele>
        <time>2021-10-09T13:41:12Z</time>
      </trkpt>
      <trkpt lat="45.63343" lon="6.22052">
        <ele>1737</ele>
        <time>2021-10-09T13:41:36Z</time>
      </trkpt>
      <trkpt lat="45.63341" lon="6.22057">
        <ele>1737</ele>
        <time>2021-10-09T13:41:44Z</time>
      </trkpt>
      <trkpt lat="45.6333" lon="6.22081">
        <ele>1743</ele>
        <time>2021-10-09T13:42:14Z</time>
      </trkpt>
      <trkpt lat="45.63328" lon="6.22086">
        <ele>1744</ele>
        <time>2021-10-09T13:42:27Z</time>
      </trkpt>
      <trkpt lat="45.63324" lon="6.22096">
        <ele>1750</ele>
        <time>2021-10-09T13:42:51Z</time>
      </trkpt>
      <trkpt lat="45.63326" lon="6.22103">
        <ele>1754</ele>
        <time>2021-10-09T13:43:09Z</time>
      </trkpt>
      <trkpt lat="45.63324" lon="6.2211">
        <ele>1758</ele>
        <time>2021-10-09T13:43:27Z</time>
      </trkpt>
      <trkpt lat="45.63319" lon="6.22114">
        <ele>1764</ele>
        <time>2021-10-09T13:43:56Z</time>
      </trkpt>
      <trkpt lat="45.6332" lon="6.22122">
        <ele>1765</ele>
        <time>2021-10-09T13:44:08Z</time>
      </trkpt>
      <trkpt lat="45.63316" lon="6.22124">
        <ele>1767</ele>
        <time>2021-10-09T13:44:20Z</time>
      </trkpt>
      <trkpt lat="45.63314" lon="6.2213">
        <ele>1774</ele>
        <time>2021-10-09T13:44:44Z</time>
      </trkpt>
      <trkpt lat="45.63311" lon="6.22137">
        <ele>1775</ele>
        <time>2021-10-09T13:45:08Z</time>
      </trkpt>
      <trkpt lat="45.63307" lon="6.22147">
        <ele>1780</ele>
        <time>2021-10-09T13:45:37Z</time>
      </trkpt>
      <trkpt lat="45.63307" lon="6.22153">
        <ele>1782</ele>
        <time>2021-10-09T13:45:55Z</time>
      </trkpt>
      <trkpt lat="45.63307" lon="6.2216">
        <ele>1785</ele>
        <time>2021-10-09T13:46:11Z</time>
      </trkpt>
      <trkpt lat="45.63303" lon="6.22167">
        <ele>1789</ele>
        <time>2021-10-09T13:46:37Z</time>
      </trkpt>
      <trkpt lat="45.63293" lon="6.22171">
        <ele>1791</ele>
        <time>2021-10-09T13:46:55Z</time>
      </trkpt>
      <trkpt lat="45.63289" lon="6.22173">
        <ele>1795</ele>
        <time>2021-10-09T13:47:06Z</time>
      </trkpt>
      <trkpt lat="45.63284" lon="6.22183">
        <ele>1797</ele>
        <time>2021-10-09T13:47:24Z</time>
      </trkpt>
      <trkpt lat="45.63287" lon="6.22192">
        <ele>1802</ele>
        <time>2021-10-09T13:48:00Z</time>
      </trkpt>
      <trkpt lat="45.6328" lon="6.222">
        <ele>1807</ele>
        <time>2021-10-09T13:48:12Z</time>
      </trkpt>
      <trkpt lat="45.63283" lon="6.22208">
        <ele>1812</ele>
        <time>2021-10-09T13:48:36Z</time>
      </trkpt>
      <trkpt lat="45.63282" lon="6.22214">
        <ele>1823</ele>
        <time>2021-10-09T13:49:42Z</time>
      </trkpt>
      <trkpt lat="45.63278" lon="6.22224">
        <ele>1826</ele>
        <time>2021-10-09T13:50:01Z</time>
      </trkpt>
      <trkpt lat="45.63271" lon="6.22226">
        <ele>1829</ele>
        <time>2021-10-09T13:50:14Z</time>
      </trkpt>
      <trkpt lat="45.63268" lon="6.22231">
        <ele>1831</ele>
        <time>2021-10-09T13:50:26Z</time>
      </trkpt>
      <trkpt lat="45.63263" lon="6.22234">
        <ele>1835</ele>
        <time>2021-10-09T13:50:50Z</time>
      </trkpt>
      <trkpt lat="45.63259" lon="6.2224">
        <ele>1836</ele>
        <time>2021-10-09T13:51:14Z</time>
      </trkpt>
      <trkpt lat="45.63259" lon="6.22246">
        <ele>1841</ele>
        <time>2021-10-09T13:51:26Z</time>
      </trkpt>
      <trkpt lat="45.63256" lon="6.22252">
        <ele>1845</ele>
        <time>2021-10-09T13:51:44Z</time>
      </trkpt>
      <trkpt lat="45.63254" lon="6.22262">
        <ele>1848</ele>
        <time>2021-10-09T13:52:08Z</time>
      </trkpt>
      <trkpt lat="45.63249" lon="6.22269">
        <ele>1850</ele>
        <time>2021-10-09T13:52:26Z</time>
      </trkpt>
      <trkpt lat="45.63239" lon="6.22266">
        <ele>1854</ele>
        <time>2021-10-09T13:52:44Z</time>
      </trkpt>
      <trkpt lat="45.63236" lon="6.22266">
        <ele>1857</ele>
        <time>2021-10-09T13:52:56Z</time>
      </trkpt>
      <trkpt lat="45.63231" lon="6.22269">
        <ele>1858</ele>
        <time>2021-10-09T13:53:07Z</time>
      </trkpt>
      <trkpt lat="45.63231" lon="6.22277">
        <ele>1864</ele>
        <time>2021-10-09T13:53:37Z</time>
      </trkpt>
      <trkpt lat="45.63235" lon="6.22283">
        <ele>1868</ele>
        <time>2021-10-09T13:53:59Z</time>
      </trkpt>
      <trkpt lat="45.6323" lon="6.22285">
        <ele>1869</ele>
        <time>2021-10-09T13:54:17Z</time>
      </trkpt>
      <trkpt lat="45.6323" lon="6.22292">
        <ele>1879</ele>
        <time>2021-10-09T13:54:53Z</time>
      </trkpt>
      <trkpt lat="45.63225" lon="6.22297">
        <ele>1883</ele>
        <time>2021-10-09T13:55:17Z</time>
      </trkpt>
      <trkpt lat="45.63224" lon="6.22303">
        <ele>1885</ele>
        <time>2021-10-09T13:55:35Z</time>
      </trkpt>
      <trkpt lat="45.63223" lon="6.22309">
        <ele>1886</ele>
        <time>2021-10-09T13:55:41Z</time>
      </trkpt>
      <trkpt lat="45.63219" lon="6.22309">
        <ele>1889</ele>
        <time>2021-10-09T13:55:52Z</time>
      </trkpt>
      <trkpt lat="45.63214" lon="6.22312">
        <ele>1892</ele>
        <time>2021-10-09T13:56:10Z</time>
      </trkpt>
      <trkpt lat="45.63211" lon="6.22316">
        <ele>1892</ele>
        <time>2021-10-09T13:56:22Z</time>
      </trkpt>
      <trkpt lat="45.63209" lon="6.22322">
        <ele>1897</ele>
        <time>2021-10-09T13:56:40Z</time>
      </trkpt>
      <trkpt lat="45.63204" lon="6.22322">
        <ele>1897</ele>
        <time>2021-10-09T13:56:52Z</time>
      </trkpt>
      <trkpt lat="45.63204" lon="6.22328">
        <ele>1900</ele>
        <time>2021-10-09T13:57:16Z</time>
      </trkpt>
      <trkpt lat="45.632" lon="6.22336">
        <ele>1907</ele>
        <time>2021-10-09T13:57:34Z</time>
      </trkpt>
      <trkpt lat="45.63205" lon="6.22338">
        <ele>1907</ele>
        <time>2021-10-09T13:58:16Z</time>
      </trkpt>
      <trkpt lat="45.63209" lon="6.22344">
        <ele>1918</ele>
        <time>2021-10-09T13:59:04Z</time>
      </trkpt>
      <trkpt lat="45.63209" lon="6.22354">
        <ele>1920</ele>
        <time>2021-10-09T13:59:22Z</time>
      </trkpt>
      <trkpt lat="45.63214" lon="6.22362">
        <ele>1928</ele>
        <time>2021-10-09T13:59:46Z</time>
      </trkpt>
      <trkpt lat="45.63218" lon="6.22361">
        <ele>1927</ele>
        <time>2021-10-09T13:59:52Z</time>
      </trkpt>
      <trkpt lat="45.63225" lon="6.22359">
        <ele>1933</ele>
        <time>2021-10-09T14:00:16Z</time>
      </trkpt>
      <trkpt lat="45.6323" lon="6.22362">
        <ele>1939</ele>
        <time>2021-10-09T14:00:41Z</time>
      </trkpt>
      <trkpt lat="45.63231" lon="6.22367">
        <ele>1940</ele>
        <time>2021-10-09T14:00:58Z</time>
      </trkpt>
      <trkpt lat="45.63225" lon="6.22371">
        <ele>1942</ele>
        <time>2021-10-09T14:01:10Z</time>
      </trkpt>
      <trkpt lat="45.63222" lon="6.2238">
        <ele>1946</ele>
        <time>2021-10-09T14:01:34Z</time>
      </trkpt>
      <trkpt lat="45.63221" lon="6.22389">
        <ele>1948</ele>
        <time>2021-10-09T14:01:46Z</time>
      </trkpt>
      <trkpt lat="45.63224" lon="6.22396">
        <ele>1951</ele>
        <time>2021-10-09T14:02:00Z</time>
      </trkpt>
      <trkpt lat="45.63224" lon="6.22405">
        <ele>1951</ele>
        <time>2021-10-09T14:02:12Z</time>
      </trkpt>
      <trkpt lat="45.63221" lon="6.22409">
        <ele>1956</ele>
        <time>2021-10-09T14:02:29Z</time>
      </trkpt>
      <trkpt lat="45.63217" lon="6.22412">
        <ele>1960</ele>
        <time>2021-10-09T14:02:47Z</time>
      </trkpt>
      <trkpt lat="45.63212" lon="6.22415">
        <ele>1964</ele>
        <time>2021-10-09T14:02:59Z</time>
      </trkpt>
      <trkpt lat="45.63209" lon="6.22417">
        <ele>1963</ele>
        <time>2021-10-09T14:03:04Z</time>
      </trkpt>
      <trkpt lat="45.63206" lon="6.22421">
        <ele>1966</ele>
        <time>2021-10-09T14:03:18Z</time>
      </trkpt>
      <trkpt lat="45.63209" lon="6.22429">
        <ele>1970</ele>
        <time>2021-10-09T14:03:30Z</time>
      </trkpt>
      <trkpt lat="45.63208" lon="6.22436">
        <ele>1974</ele>
        <time>2021-10-09T14:03:54Z</time>
      </trkpt>
      <trkpt lat="45.63204" lon="6.22437">
        <ele>1975</ele>
        <time>2021-10-09T14:04:06Z</time>
      </trkpt>
      <trkpt lat="45.63202" lon="6.22442">
        <ele>1978</ele>
        <time>2021-10-09T14:04:18Z</time>
      </trkpt>
      <trkpt lat="45.63198" lon="6.22446">
        <ele>1978</ele>
        <time>2021-10-09T14:04:30Z</time>
      </trkpt>
      <trkpt lat="45.63199" lon="6.22452">
        <ele>1981</ele>
        <time>2021-10-09T14:04:33Z</time>
      </trkpt>
      <trkpt lat="45.6319" lon="6.22452">
        <ele>1985</ele>
        <time>2021-10-09T14:04:53Z</time>
      </trkpt>
      <trkpt lat="45.63182" lon="6.22456">
        <ele>1985</ele>
        <time>2021-10-09T14:05:03Z</time>
      </trkpt>
      <trkpt lat="45.63179" lon="6.22459">
        <ele>1990</ele>
        <time>2021-10-09T14:05:12Z</time>
      </trkpt>
      <trkpt lat="45.63175" lon="6.22462">
        <ele>1989</ele>
        <time>2021-10-09T14:05:24Z</time>
      </trkpt>
      <trkpt lat="45.63171" lon="6.22463">
        <ele>1989</ele>
        <time>2021-10-09T14:05:36Z</time>
      </trkpt>
      <trkpt lat="45.63168" lon="6.22466">
        <ele>1994</ele>
        <time>2021-10-09T14:05:48Z</time>
      </trkpt>
      <trkpt lat="45.6316" lon="6.22477">
        <ele>1999</ele>
        <time>2021-10-09T14:06:12Z</time>
      </trkpt>
      <trkpt lat="45.63154" lon="6.22478">
        <ele>2000</ele>
        <time>2021-10-09T14:06:24Z</time>
      </trkpt>
      <trkpt lat="45.6315" lon="6.22481">
        <ele>2000</ele>
        <time>2021-10-09T14:06:36Z</time>
      </trkpt>
      <trkpt lat="45.63147" lon="6.22483">
        <ele>2001</ele>
        <time>2021-10-09T14:06:42Z</time>
      </trkpt>
      <trkpt lat="45.63143" lon="6.22485">
        <ele>2003</ele>
        <time>2021-10-09T14:06:46Z</time>
      </trkpt>
      <trkpt lat="45.63142" lon="6.2249">
        <ele>2006</ele>
        <time>2021-10-09T14:06:57Z</time>
      </trkpt>
      <trkpt lat="45.63136" lon="6.22491">
        <ele>2006</ele>
        <time>2021-10-09T14:07:09Z</time>
      </trkpt>
      <trkpt lat="45.63138" lon="6.22499">
        <ele>2011</ele>
        <time>2021-10-09T14:07:30Z</time>
      </trkpt>
      <trkpt lat="45.63136" lon="6.22503">
        <ele>2013</ele>
        <time>2021-10-09T14:07:46Z</time>
      </trkpt>
      <trkpt lat="45.63139" lon="6.22511">
        <ele>2017</ele>
        <time>2021-10-09T14:08:03Z</time>
      </trkpt>
      <trkpt lat="45.63135" lon="6.22514">
        <ele>2020</ele>
        <time>2021-10-09T14:08:24Z</time>
      </trkpt>
      <trkpt lat="45.63129" lon="6.22514">
        <ele>2023</ele>
        <time>2021-10-09T14:08:41Z</time>
      </trkpt>
      <trkpt lat="45.63126" lon="6.22519">
        <ele>2027</ele>
        <time>2021-10-09T14:09:05Z</time>
      </trkpt>
      <trkpt lat="45.63123" lon="6.22518">
        <ele>2029</ele>
        <time>2021-10-09T14:09:22Z</time>
      </trkpt>
      <trkpt lat="45.63119" lon="6.22525">
        <ele>2034</ele>
        <time>2021-10-09T14:10:28Z</time>
      </trkpt>
      <trkpt lat="45.63114" lon="6.22533">
        <ele>2042</ele>
        <time>2021-10-09T14:11:10Z</time>
      </trkpt>
      <trkpt lat="45.63108" lon="6.22536">
        <ele>2044</ele>
        <time>2021-10-09T14:11:22Z</time>
      </trkpt>
      <trkpt lat="45.63102" lon="6.22538">
        <ele>2047</ele>
        <time>2021-10-09T14:11:34Z</time>
      </trkpt>
      <trkpt lat="45.63097" lon="6.22539">
        <ele>2052</ele>
        <time>2021-10-09T14:12:52Z</time>
      </trkpt>
      <trkpt lat="45.63093" lon="6.22539">
        <ele>2059</ele>
        <time>2021-10-09T14:13:34Z</time>
      </trkpt>
      <trkpt lat="45.63098" lon="6.22544">
        <ele>2058</ele>
        <time>2021-10-09T14:13:58Z</time>
      </trkpt>
      <trkpt lat="45.63095" lon="6.22552">
        <ele>2064</ele>
        <time>2021-10-09T14:14:32Z</time>
      </trkpt>
      <trkpt lat="45.6309" lon="6.22557">
        <ele>2067</ele>
        <time>2021-10-09T14:14:48Z</time>
      </trkpt>
      <trkpt lat="45.63089" lon="6.22567">
        <ele>2071</ele>
        <time>2021-10-09T14:15:09Z</time>
      </trkpt>
      <trkpt lat="45.63086" lon="6.22573">
        <ele>2078</ele>
        <time>2021-10-09T14:15:44Z</time>
      </trkpt>
      <trkpt lat="45.63082" lon="6.22581">
        <ele>2082</ele>
        <time>2021-10-09T14:16:14Z</time>
      </trkpt>
      <trkpt lat="45.63084" lon="6.2259">
        <ele>2090</ele>
        <time>2021-10-09T14:17:14Z</time>
      </trkpt>
      <trkpt lat="45.63079" lon="6.22592">
        <ele>2091</ele>
        <time>2021-10-09T14:17:44Z</time>
      </trkpt>
      <trkpt lat="45.63083" lon="6.226">
        <ele>2096</ele>
        <time>2021-10-09T14:18:07Z</time>
      </trkpt>
      <trkpt lat="45.63083" lon="6.22607">
        <ele>2095</ele>
        <time>2021-10-09T14:18:18Z</time>
      </trkpt>
      <trkpt lat="45.63083" lon="6.22617">
        <ele>2099</ele>
        <time>2021-10-09T14:18:42Z</time>
      </trkpt>
      <trkpt lat="45.63084" lon="6.22624">
        <ele>2105</ele>
        <time>2021-10-09T14:19:00Z</time>
      </trkpt>
      <trkpt lat="45.63079" lon="6.22631">
        <ele>2110</ele>
        <time>2021-10-09T14:19:33Z</time>
      </trkpt>
      <trkpt lat="45.63074" lon="6.22635">
        <ele>2112</ele>
        <time>2021-10-09T14:19:45Z</time>
      </trkpt>
      <trkpt lat="45.63068" lon="6.22636">
        <ele>2116</ele>
        <time>2021-10-09T14:20:03Z</time>
      </trkpt>
      <trkpt lat="45.63059" lon="6.22636">
        <ele>2122</ele>
        <time>2021-10-09T14:20:39Z</time>
      </trkpt>
      <trkpt lat="45.63056" lon="6.22638">
        <ele>2124</ele>
        <time>2021-10-09T14:20:51Z</time>
      </trkpt>
      <trkpt lat="45.63055" lon="6.22645">
        <ele>2128</ele>
        <time>2021-10-09T14:21:15Z</time>
      </trkpt>
      <trkpt lat="45.63057" lon="6.22653">
        <ele>2130</ele>
        <time>2021-10-09T14:21:31Z</time>
      </trkpt>
      <trkpt lat="45.63058" lon="6.22662">
        <ele>2130</ele>
        <time>2021-10-09T14:21:38Z</time>
      </trkpt>
      <trkpt lat="45.6306" lon="6.22668">
        <ele>2131</ele>
        <time>2021-10-09T14:21:45Z</time>
      </trkpt>
      <trkpt lat="45.63059" lon="6.22674">
        <ele>2135</ele>
        <time>2021-10-09T14:21:55Z</time>
      </trkpt>
      <trkpt lat="45.63061" lon="6.2268">
        <ele>2137</ele>
        <time>2021-10-09T14:22:06Z</time>
      </trkpt>
      <trkpt lat="45.63061" lon="6.22686">
        <ele>2136</ele>
        <time>2021-10-09T14:22:16Z</time>
      </trkpt>
      <trkpt lat="45.63067" lon="6.22693">
        <ele>2139</ele>
        <time>2021-10-09T14:22:26Z</time>
      </trkpt>
      <trkpt lat="45.63069" lon="6.22698">
        <ele>2138</ele>
        <time>2021-10-09T14:22:32Z</time>
      </trkpt>
      <trkpt lat="45.6307" lon="6.22705">
        <ele>2141</ele>
        <time>2021-10-09T14:22:40Z</time>
      </trkpt>
      <trkpt lat="45.63073" lon="6.2271">
        <ele>2141</ele>
        <time>2021-10-09T14:22:46Z</time>
      </trkpt>
      <trkpt lat="45.63074" lon="6.22719">
        <ele>2140</ele>
        <time>2021-10-09T14:22:54Z</time>
      </trkpt>
      <trkpt lat="45.63075" lon="6.22726">
        <ele>2140</ele>
        <time>2021-10-09T14:23:01Z</time>
      </trkpt>
      <trkpt lat="45.63077" lon="6.2273">
        <ele>2143</ele>
        <time>2021-10-09T14:23:07Z</time>
      </trkpt>
      <trkpt lat="45.6308" lon="6.22735">
        <ele>2143</ele>
        <time>2021-10-09T14:23:19Z</time>
      </trkpt>
      <trkpt lat="45.63083" lon="6.22744">
        <ele>2145</ele>
        <time>2021-10-09T14:23:27Z</time>
      </trkpt>
      <trkpt lat="45.63082" lon="6.22757">
        <ele>2146</ele>
        <time>2021-10-09T14:23:41Z</time>
      </trkpt>
      <trkpt lat="45.63082" lon="6.22763">
        <ele>2151</ele>
        <time>2021-10-09T14:23:47Z</time>
      </trkpt>
      <trkpt lat="45.63082" lon="6.22773">
        <ele>2153</ele>
        <time>2021-10-09T14:24:05Z</time>
      </trkpt>
      <trkpt lat="45.63082" lon="6.22784">
        <ele>2155</ele>
        <time>2021-10-09T14:24:15Z</time>
      </trkpt>
      <trkpt lat="45.63082" lon="6.22789">
        <ele>2156</ele>
        <time>2021-10-09T14:24:23Z</time>
      </trkpt>
      <trkpt lat="45.63086" lon="6.22795">
        <ele>2157</ele>
        <time>2021-10-09T14:24:33Z</time>
      </trkpt>
      <trkpt lat="45.63089" lon="6.22804">
        <ele>2157</ele>
        <time>2021-10-09T14:24:41Z</time>
      </trkpt>
      <trkpt lat="45.63092" lon="6.22816">
        <ele>2159</ele>
        <time>2021-10-09T14:24:54Z</time>
      </trkpt>
      <trkpt lat="45.63093" lon="6.22827">
        <ele>2161</ele>
        <time>2021-10-09T14:25:06Z</time>
      </trkpt>
      <trkpt lat="45.63096" lon="6.22831">
        <ele>2159</ele>
        <time>2021-10-09T14:25:11Z</time>
      </trkpt>
      <trkpt lat="45.631" lon="6.22838">
        <ele>2164</ele>
        <time>2021-10-09T14:25:25Z</time>
      </trkpt>
      <trkpt lat="45.63104" lon="6.22845">
        <ele>2165</ele>
        <time>2021-10-09T14:25:37Z</time>
      </trkpt>
      <trkpt lat="45.63103" lon="6.22851">
        <ele>2168</ele>
        <time>2021-10-09T14:25:49Z</time>
      </trkpt>
      <trkpt lat="45.63117" lon="6.2287">
        <ele>2172</ele>
        <time>2021-10-09T14:26:31Z</time>
      </trkpt>
      <trkpt lat="45.63123" lon="6.22892">
        <ele>2175</ele>
        <time>2021-10-09T14:26:55Z</time>
      </trkpt>
      <trkpt lat="45.6312" lon="6.22899">
        <ele>2176</ele>
        <time>2021-10-09T14:27:06Z</time>
      </trkpt>
      <trkpt lat="45.63117" lon="6.22902">
        <ele>2179</ele>
        <time>2021-10-09T14:27:11Z</time>
      </trkpt>
      <trkpt lat="45.63121" lon="6.2291">
        <ele>2182</ele>
        <time>2021-10-09T14:27:35Z</time>
      </trkpt>
      <trkpt lat="45.63123" lon="6.22915">
        <ele>2187</ele>
        <time>2021-10-09T14:27:53Z</time>
      </trkpt>
      <trkpt lat="45.63125" lon="6.22919">
        <ele>2187</ele>
        <time>2021-10-09T14:28:05Z</time>
      </trkpt>
      <trkpt lat="45.6313" lon="6.22922">
        <ele>2188</ele>
        <time>2021-10-09T14:28:23Z</time>
      </trkpt>
      <trkpt lat="45.63137" lon="6.22931">
        <ele>2188</ele>
        <time>2021-10-09T14:28:40Z</time>
      </trkpt>
      <trkpt lat="45.63145" lon="6.22934">
        <ele>2187</ele>
        <time>2021-10-09T14:29:02Z</time>
      </trkpt>
      <trkpt lat="45.6315" lon="6.22939">
        <ele>2187</ele>
        <time>2021-10-09T14:29:31Z</time>
      </trkpt>
      <trkpt lat="45.6316" lon="6.22944">
        <ele>2187</ele>
        <time>2021-10-09T14:29:49Z</time>
      </trkpt>
      <trkpt lat="45.63165" lon="6.22945">
        <ele>2185</ele>
        <time>2021-10-09T14:29:55Z</time>
      </trkpt>
      <trkpt lat="45.6317" lon="6.22952">
        <ele>2184</ele>
        <time>2021-10-09T14:30:15Z</time>
      </trkpt>
      <trkpt lat="45.63176" lon="6.22963">
        <ele>2185</ele>
        <time>2021-10-09T14:30:27Z</time>
      </trkpt>
      <trkpt lat="45.63176" lon="6.2297">
        <ele>2190</ele>
        <time>2021-10-09T14:30:45Z</time>
      </trkpt>
      <trkpt lat="45.63177" lon="6.22972">
        <ele>2188</ele>
        <time>2021-10-09T14:34:15Z</time>
      </trkpt>
      <trkpt lat="45.63185" lon="6.22981">
        <ele>2187</ele>
        <time>2021-10-09T14:35:03Z</time>
      </trkpt>
      <trkpt lat="45.6319" lon="6.22986">
        <ele>2187</ele>
        <time>2021-10-09T14:35:13Z</time>
      </trkpt>
      <trkpt lat="45.632" lon="6.22999">
        <ele>2188</ele>
        <time>2021-10-09T14:35:33Z</time>
      </trkpt>
      <trkpt lat="45.63199" lon="6.23006">
        <ele>2185</ele>
        <time>2021-10-09T14:36:00Z</time>
      </trkpt>
      <trkpt lat="45.63201" lon="6.23011">
        <ele>2184</ele>
        <time>2021-10-09T14:36:04Z</time>
      </trkpt>
      <trkpt lat="45.63195" lon="6.23015">
        <ele>2178</ele>
        <time>2021-10-09T14:36:37Z</time>
      </trkpt>
      <trkpt lat="45.63193" lon="6.23023">
        <ele>2176</ele>
        <time>2021-10-09T14:37:13Z</time>
      </trkpt>
      <trkpt lat="45.6319" lon="6.2304">
        <ele>2167</ele>
        <time>2021-10-09T14:38:00Z</time>
      </trkpt>
      <trkpt lat="45.63189" lon="6.23046">
        <ele>2162</ele>
        <time>2021-10-09T14:38:18Z</time>
      </trkpt>
      <trkpt lat="45.63182" lon="6.23046">
        <ele>2158</ele>
        <time>2021-10-09T14:38:42Z</time>
      </trkpt>
      <trkpt lat="45.63169" lon="6.23053">
        <ele>2149</ele>
        <time>2021-10-09T14:39:24Z</time>
      </trkpt>
      <trkpt lat="45.63166" lon="6.23055">
        <ele>2145</ele>
        <time>2021-10-09T14:39:48Z</time>
      </trkpt>
      <trkpt lat="45.6316" lon="6.23056">
        <ele>2140</ele>
        <time>2021-10-09T14:40:12Z</time>
      </trkpt>
      <trkpt lat="45.63154" lon="6.23058">
        <ele>2136</ele>
        <time>2021-10-09T14:40:36Z</time>
      </trkpt>
      <trkpt lat="45.63148" lon="6.23064">
        <ele>2131</ele>
        <time>2021-10-09T14:41:00Z</time>
      </trkpt>
      <trkpt lat="45.63144" lon="6.23073">
        <ele>2125</ele>
        <time>2021-10-09T14:41:30Z</time>
      </trkpt>
      <trkpt lat="45.63139" lon="6.23077">
        <ele>2121</ele>
        <time>2021-10-09T14:41:48Z</time>
      </trkpt>
      <trkpt lat="45.63134" lon="6.23087">
        <ele>2116</ele>
        <time>2021-10-09T14:42:12Z</time>
      </trkpt>
      <trkpt lat="45.63127" lon="6.2309">
        <ele>2113</ele>
        <time>2021-10-09T14:42:30Z</time>
      </trkpt>
      <trkpt lat="45.63124" lon="6.23098">
        <ele>2110</ele>
        <time>2021-10-09T14:42:42Z</time>
      </trkpt>
      <trkpt lat="45.63118" lon="6.23095">
        <ele>2106</ele>
        <time>2021-10-09T14:42:58Z</time>
      </trkpt>
      <trkpt lat="45.63111" lon="6.23093">
        <ele>2103</ele>
        <time>2021-10-09T14:43:08Z</time>
      </trkpt>
      <trkpt lat="45.63106" lon="6.23089">
        <ele>2098</ele>
        <time>2021-10-09T14:43:30Z</time>
      </trkpt>
      <trkpt lat="45.63103" lon="6.23082">
        <ele>2095</ele>
        <time>2021-10-09T14:43:42Z</time>
      </trkpt>
      <trkpt lat="45.63097" lon="6.23083">
        <ele>2089</ele>
        <time>2021-10-09T14:44:06Z</time>
      </trkpt>
      <trkpt lat="45.63092" lon="6.23082">
        <ele>2085</ele>
        <time>2021-10-09T14:44:30Z</time>
      </trkpt>
      <trkpt lat="45.63087" lon="6.23075">
        <ele>2080</ele>
        <time>2021-10-09T14:44:47Z</time>
      </trkpt>
      <trkpt lat="45.6308" lon="6.23075">
        <ele>2077</ele>
        <time>2021-10-09T14:44:59Z</time>
      </trkpt>
      <trkpt lat="45.63058" lon="6.23091">
        <ele>2069</ele>
        <time>2021-10-09T14:45:31Z</time>
      </trkpt>
      <trkpt lat="45.63055" lon="6.23099">
        <ele>2065</ele>
        <time>2021-10-09T14:45:43Z</time>
      </trkpt>
      <trkpt lat="45.63055" lon="6.23106">
        <ele>2059</ele>
        <time>2021-10-09T14:46:13Z</time>
      </trkpt>
      <trkpt lat="45.63053" lon="6.23115">
        <ele>2058</ele>
        <time>2021-10-09T14:46:31Z</time>
      </trkpt>
      <trkpt lat="45.63049" lon="6.23125">
        <ele>2056</ele>
        <time>2021-10-09T14:46:43Z</time>
      </trkpt>
      <trkpt lat="45.63051" lon="6.23137">
        <ele>2053</ele>
        <time>2021-10-09T14:46:55Z</time>
      </trkpt>
      <trkpt lat="45.63048" lon="6.23145">
        <ele>2048</ele>
        <time>2021-10-09T14:47:49Z</time>
      </trkpt>
      <trkpt lat="45.63052" lon="6.23152">
        <ele>2049</ele>
        <time>2021-10-09T14:47:56Z</time>
      </trkpt>
      <trkpt lat="45.63054" lon="6.23146">
        <ele>2048</ele>
        <time>2021-10-09T14:48:39Z</time>
      </trkpt>
      <trkpt lat="45.63057" lon="6.23137">
        <ele>2047</ele>
        <time>2021-10-09T14:49:05Z</time>
      </trkpt>
      <trkpt lat="45.63054" lon="6.2313">
        <ele>2046</ele>
        <time>2021-10-09T14:49:29Z</time>
      </trkpt>
      <trkpt lat="45.63049" lon="6.23133">
        <ele>2041</ele>
        <time>2021-10-09T14:50:08Z</time>
      </trkpt>
      <trkpt lat="45.63029" lon="6.23133">
        <ele>2031</ele>
        <time>2021-10-09T14:50:53Z</time>
      </trkpt>
      <trkpt lat="45.63022" lon="6.23133">
        <ele>2027</ele>
        <time>2021-10-09T14:51:05Z</time>
      </trkpt>
      <trkpt lat="45.63017" lon="6.23143">
        <ele>2022</ele>
        <time>2021-10-09T14:51:28Z</time>
      </trkpt>
      <trkpt lat="45.63014" lon="6.23165">
        <ele>2015</ele>
        <time>2021-10-09T14:52:11Z</time>
      </trkpt>
      <trkpt lat="45.63" lon="6.23205">
        <ele>2005</ele>
        <time>2021-10-09T14:52:51Z</time>
      </trkpt>
      <trkpt lat="45.62999" lon="6.23211">
        <ele>2003</ele>
        <time>2021-10-09T14:52:58Z</time>
      </trkpt>
      <trkpt lat="45.62996" lon="6.23215">
        <ele>2001</ele>
        <time>2021-10-09T14:53:03Z</time>
      </trkpt>
      <trkpt lat="45.62995" lon="6.2322">
        <ele>1999</ele>
        <time>2021-10-09T14:53:09Z</time>
      </trkpt>
      <trkpt lat="45.62991" lon="6.23226">
        <ele>1997</ele>
        <time>2021-10-09T14:53:25Z</time>
      </trkpt>
      <trkpt lat="45.62987" lon="6.23235">
        <ele>1993</ele>
        <time>2021-10-09T14:54:04Z</time>
      </trkpt>
      <trkpt lat="45.62982" lon="6.23236">
        <ele>1992</ele>
        <time>2021-10-09T14:54:08Z</time>
      </trkpt>
      <trkpt lat="45.62975" lon="6.23242">
        <ele>1989</ele>
        <time>2021-10-09T14:54:15Z</time>
      </trkpt>
      <trkpt lat="45.62956" lon="6.23251">
        <ele>1981</ele>
        <time>2021-10-09T14:54:32Z</time>
      </trkpt>
      <trkpt lat="45.62952" lon="6.23254">
        <ele>1980</ele>
        <time>2021-10-09T14:54:36Z</time>
      </trkpt>
      <trkpt lat="45.62948" lon="6.23256">
        <ele>1978</ele>
        <time>2021-10-09T14:54:40Z</time>
      </trkpt>
      <trkpt lat="45.62939" lon="6.23256">
        <ele>1975</ele>
        <time>2021-10-09T14:54:48Z</time>
      </trkpt>
      <trkpt lat="45.62937" lon="6.23261">
        <ele>1973</ele>
        <time>2021-10-09T14:54:52Z</time>
      </trkpt>
      <trkpt lat="45.62931" lon="6.23263">
        <ele>1971</ele>
        <time>2021-10-09T14:54:59Z</time>
      </trkpt>
      <trkpt lat="45.62924" lon="6.23267">
        <ele>1967</ele>
        <time>2021-10-09T14:55:07Z</time>
      </trkpt>
      <trkpt lat="45.62919" lon="6.23269">
        <ele>1966</ele>
        <time>2021-10-09T14:55:15Z</time>
      </trkpt>
      <trkpt lat="45.62911" lon="6.23272">
        <ele>1963</ele>
        <time>2021-10-09T14:55:23Z</time>
      </trkpt>
      <trkpt lat="45.62903" lon="6.23273">
        <ele>1960</ele>
        <time>2021-10-09T14:55:33Z</time>
      </trkpt>
      <trkpt lat="45.62897" lon="6.23275">
        <ele>1958</ele>
        <time>2021-10-09T14:55:39Z</time>
      </trkpt>
      <trkpt lat="45.62892" lon="6.23276">
        <ele>1955</ele>
        <time>2021-10-09T14:55:49Z</time>
      </trkpt>
      <trkpt lat="45.62887" lon="6.23279">
        <ele>1952</ele>
        <time>2021-10-09T14:55:57Z</time>
      </trkpt>
      <trkpt lat="45.62879" lon="6.23263">
        <ele>1942</ele>
        <time>2021-10-09T14:56:25Z</time>
      </trkpt>
      <trkpt lat="45.62879" lon="6.23256">
        <ele>1941</ele>
        <time>2021-10-09T14:56:31Z</time>
      </trkpt>
      <trkpt lat="45.62881" lon="6.2325">
        <ele>1939</ele>
        <time>2021-10-09T14:56:35Z</time>
      </trkpt>
      <trkpt lat="45.62883" lon="6.23244">
        <ele>1937</ele>
        <time>2021-10-09T14:56:44Z</time>
      </trkpt>
      <trkpt lat="45.62881" lon="6.23239">
        <ele>1934</ele>
        <time>2021-10-09T14:56:50Z</time>
      </trkpt>
      <trkpt lat="45.6288" lon="6.23221">
        <ele>1929</ele>
        <time>2021-10-09T14:57:06Z</time>
      </trkpt>
      <trkpt lat="45.62881" lon="6.23215">
        <ele>1927</ele>
        <time>2021-10-09T14:57:13Z</time>
      </trkpt>
      <trkpt lat="45.62879" lon="6.2321">
        <ele>1926</ele>
        <time>2021-10-09T14:57:18Z</time>
      </trkpt>
      <trkpt lat="45.62872" lon="6.23214">
        <ele>1924</ele>
        <time>2021-10-09T14:57:27Z</time>
      </trkpt>
      <trkpt lat="45.62869" lon="6.23217">
        <ele>1923</ele>
        <time>2021-10-09T14:57:31Z</time>
      </trkpt>
      <trkpt lat="45.62862" lon="6.23219">
        <ele>1920</ele>
        <time>2021-10-09T14:57:40Z</time>
      </trkpt>
      <trkpt lat="45.62863" lon="6.23208">
        <ele>1916</ele>
        <time>2021-10-09T14:57:53Z</time>
      </trkpt>
      <trkpt lat="45.62862" lon="6.23202">
        <ele>1915</ele>
        <time>2021-10-09T14:57:58Z</time>
      </trkpt>
      <trkpt lat="45.62861" lon="6.23193">
        <ele>1911</ele>
        <time>2021-10-09T14:58:11Z</time>
      </trkpt>
      <trkpt lat="45.62854" lon="6.23185">
        <ele>1907</ele>
        <time>2021-10-09T14:58:24Z</time>
      </trkpt>
      <trkpt lat="45.62847" lon="6.23186">
        <ele>1904</ele>
        <time>2021-10-09T14:58:36Z</time>
      </trkpt>
      <trkpt lat="45.62841" lon="6.23182">
        <ele>1902</ele>
        <time>2021-10-09T14:58:43Z</time>
      </trkpt>
      <trkpt lat="45.62844" lon="6.23178">
        <ele>1900</ele>
        <time>2021-10-09T14:58:50Z</time>
      </trkpt>
      <trkpt lat="45.62842" lon="6.23173">
        <ele>1898</ele>
        <time>2021-10-09T14:58:54Z</time>
      </trkpt>
      <trkpt lat="45.62837" lon="6.23173">
        <ele>1897</ele>
        <time>2021-10-09T14:59:03Z</time>
      </trkpt>
      <trkpt lat="45.62831" lon="6.23172">
        <ele>1892</ele>
        <time>2021-10-09T14:59:13Z</time>
      </trkpt>
      <trkpt lat="45.62827" lon="6.23175">
        <ele>1892</ele>
        <time>2021-10-09T14:59:17Z</time>
      </trkpt>
      <trkpt lat="45.6282" lon="6.23179">
        <ele>1890</ele>
        <time>2021-10-09T14:59:24Z</time>
      </trkpt>
      <trkpt lat="45.62818" lon="6.23184">
        <ele>1889</ele>
        <time>2021-10-09T14:59:28Z</time>
      </trkpt>
      <trkpt lat="45.62815" lon="6.23178">
        <ele>1887</ele>
        <time>2021-10-09T14:59:36Z</time>
      </trkpt>
      <trkpt lat="45.62817" lon="6.23153">
        <ele>1879</ele>
        <time>2021-10-09T14:59:56Z</time>
      </trkpt>
      <trkpt lat="45.62812" lon="6.23156">
        <ele>1879</ele>
        <time>2021-10-09T15:00:00Z</time>
      </trkpt>
      <trkpt lat="45.62806" lon="6.23155">
        <ele>1875</ele>
        <time>2021-10-09T15:00:13Z</time>
      </trkpt>
      <trkpt lat="45.62802" lon="6.2315">
        <ele>1873</ele>
        <time>2021-10-09T15:00:18Z</time>
      </trkpt>
      <trkpt lat="45.62791" lon="6.23147">
        <ele>1869</ele>
        <time>2021-10-09T15:00:29Z</time>
      </trkpt>
      <trkpt lat="45.62788" lon="6.23148">
        <ele>1868</ele>
        <time>2021-10-09T15:00:32Z</time>
      </trkpt>
      <trkpt lat="45.62785" lon="6.23141">
        <ele>1865</ele>
        <time>2021-10-09T15:00:38Z</time>
      </trkpt>
      <trkpt lat="45.62781" lon="6.23136">
        <ele>1864</ele>
        <time>2021-10-09T15:00:41Z</time>
      </trkpt>
      <trkpt lat="45.62779" lon="6.2313">
        <ele>1861</ele>
        <time>2021-10-09T15:00:45Z</time>
      </trkpt>
      <trkpt lat="45.62775" lon="6.23124">
        <ele>1858</ele>
        <time>2021-10-09T15:00:50Z</time>
      </trkpt>
      <trkpt lat="45.6277" lon="6.23116">
        <ele>1853</ele>
        <time>2021-10-09T15:01:01Z</time>
      </trkpt>
      <trkpt lat="45.62768" lon="6.23112">
        <ele>1852</ele>
        <time>2021-10-09T15:01:04Z</time>
      </trkpt>
      <trkpt lat="45.62767" lon="6.23105">
        <ele>1849</ele>
        <time>2021-10-09T15:01:10Z</time>
      </trkpt>
      <trkpt lat="45.62764" lon="6.23102">
        <ele>1849</ele>
        <time>2021-10-09T15:01:14Z</time>
      </trkpt>
      <trkpt lat="45.62763" lon="6.23093">
        <ele>1845</ele>
        <time>2021-10-09T15:01:22Z</time>
      </trkpt>
      <trkpt lat="45.62758" lon="6.23082">
        <ele>1842</ele>
        <time>2021-10-09T15:01:30Z</time>
      </trkpt>
      <trkpt lat="45.62754" lon="6.23082">
        <ele>1840</ele>
        <time>2021-10-09T15:01:33Z</time>
      </trkpt>
      <trkpt lat="45.62752" lon="6.23077">
        <ele>1840</ele>
        <time>2021-10-09T15:01:37Z</time>
      </trkpt>
      <trkpt lat="45.62749" lon="6.23069">
        <ele>1837</ele>
        <time>2021-10-09T15:01:43Z</time>
      </trkpt>
      <trkpt lat="45.62744" lon="6.23065">
        <ele>1834</ele>
        <time>2021-10-09T15:01:51Z</time>
      </trkpt>
      <trkpt lat="45.62741" lon="6.23061">
        <ele>1832</ele>
        <time>2021-10-09T15:01:56Z</time>
      </trkpt>
      <trkpt lat="45.6274" lon="6.23056">
        <ele>1829</ele>
        <time>2021-10-09T15:02:02Z</time>
      </trkpt>
      <trkpt lat="45.62736" lon="6.2305">
        <ele>1827</ele>
        <time>2021-10-09T15:02:08Z</time>
      </trkpt>
      <trkpt lat="45.6273" lon="6.23046">
        <ele>1825</ele>
        <time>2021-10-09T15:02:13Z</time>
      </trkpt>
      <trkpt lat="45.62729" lon="6.2304">
        <ele>1821</ele>
        <time>2021-10-09T15:02:25Z</time>
      </trkpt>
      <trkpt lat="45.62725" lon="6.23039">
        <ele>1819</ele>
        <time>2021-10-09T15:02:29Z</time>
      </trkpt>
      <trkpt lat="45.62721" lon="6.23034">
        <ele>1815</ele>
        <time>2021-10-09T15:02:43Z</time>
      </trkpt>
      <trkpt lat="45.62719" lon="6.23029">
        <ele>1814</ele>
        <time>2021-10-09T15:02:47Z</time>
      </trkpt>
      <trkpt lat="45.62717" lon="6.23022">
        <ele>1811</ele>
        <time>2021-10-09T15:02:54Z</time>
      </trkpt>
      <trkpt lat="45.62715" lon="6.23017">
        <ele>1810</ele>
        <time>2021-10-09T15:02:57Z</time>
      </trkpt>
      <trkpt lat="45.6271" lon="6.23011">
        <ele>1808</ele>
        <time>2021-10-09T15:03:04Z</time>
      </trkpt>
      <trkpt lat="45.62708" lon="6.23002">
        <ele>1806</ele>
        <time>2021-10-09T15:03:11Z</time>
      </trkpt>
      <trkpt lat="45.62705" lon="6.22996">
        <ele>1803</ele>
        <time>2021-10-09T15:03:17Z</time>
      </trkpt>
      <trkpt lat="45.62705" lon="6.22988">
        <ele>1801</ele>
        <time>2021-10-09T15:03:21Z</time>
      </trkpt>
      <trkpt lat="45.62705" lon="6.22979">
        <ele>1801</ele>
        <time>2021-10-09T15:03:26Z</time>
      </trkpt>
      <trkpt lat="45.62697" lon="6.22973">
        <ele>1797</ele>
        <time>2021-10-09T15:03:35Z</time>
      </trkpt>
      <trkpt lat="45.62695" lon="6.22969">
        <ele>1796</ele>
        <time>2021-10-09T15:03:39Z</time>
      </trkpt>
      <trkpt lat="45.62694" lon="6.22952">
        <ele>1790</ele>
        <time>2021-10-09T15:03:54Z</time>
      </trkpt>
      <trkpt lat="45.62691" lon="6.22944">
        <ele>1788</ele>
        <time>2021-10-09T15:04:01Z</time>
      </trkpt>
      <trkpt lat="45.6269" lon="6.22932">
        <ele>1786</ele>
        <time>2021-10-09T15:04:07Z</time>
      </trkpt>
      <trkpt lat="45.62688" lon="6.22927">
        <ele>1785</ele>
        <time>2021-10-09T15:04:09Z</time>
      </trkpt>
      <trkpt lat="45.62678" lon="6.22906">
        <ele>1781</ele>
        <time>2021-10-09T15:04:20Z</time>
      </trkpt>
      <trkpt lat="45.62675" lon="6.22903">
        <ele>1779</ele>
        <time>2021-10-09T15:04:24Z</time>
      </trkpt>
      <trkpt lat="45.62666" lon="6.22898">
        <ele>1774</ele>
        <time>2021-10-09T15:04:37Z</time>
      </trkpt>
      <trkpt lat="45.62663" lon="6.22894">
        <ele>1773</ele>
        <time>2021-10-09T15:04:42Z</time>
      </trkpt>
      <trkpt lat="45.6266" lon="6.22893">
        <ele>1771</ele>
        <time>2021-10-09T15:04:46Z</time>
      </trkpt>
      <trkpt lat="45.62655" lon="6.2289">
        <ele>1769</ele>
        <time>2021-10-09T15:04:53Z</time>
      </trkpt>
      <trkpt lat="45.62652" lon="6.22886">
        <ele>1766</ele>
        <time>2021-10-09T15:04:59Z</time>
      </trkpt>
      <trkpt lat="45.62648" lon="6.22884">
        <ele>1764</ele>
        <time>2021-10-09T15:05:05Z</time>
      </trkpt>
      <trkpt lat="45.62646" lon="6.2288">
        <ele>1763</ele>
        <time>2021-10-09T15:05:11Z</time>
      </trkpt>
      <trkpt lat="45.62643" lon="6.22875">
        <ele>1761</ele>
        <time>2021-10-09T15:05:15Z</time>
      </trkpt>
      <trkpt lat="45.62639" lon="6.22874">
        <ele>1759</ele>
        <time>2021-10-09T15:05:18Z</time>
      </trkpt>
      <trkpt lat="45.62636" lon="6.2287">
        <ele>1759</ele>
        <time>2021-10-09T15:05:22Z</time>
      </trkpt>
      <trkpt lat="45.62634" lon="6.22866">
        <ele>1758</ele>
        <time>2021-10-09T15:05:25Z</time>
      </trkpt>
      <trkpt lat="45.62634" lon="6.2286">
        <ele>1756</ele>
        <time>2021-10-09T15:05:29Z</time>
      </trkpt>
      <trkpt lat="45.62633" lon="6.22855">
        <ele>1755</ele>
        <time>2021-10-09T15:05:33Z</time>
      </trkpt>
      <trkpt lat="45.62629" lon="6.22855">
        <ele>1753</ele>
        <time>2021-10-09T15:05:40Z</time>
      </trkpt>
      <trkpt lat="45.62625" lon="6.22859">
        <ele>1751</ele>
        <time>2021-10-09T15:05:43Z</time>
      </trkpt>
      <trkpt lat="45.62619" lon="6.22861">
        <ele>1749</ele>
        <time>2021-10-09T15:05:48Z</time>
      </trkpt>
      <trkpt lat="45.62616" lon="6.22866">
        <ele>1748</ele>
        <time>2021-10-09T15:05:51Z</time>
      </trkpt>
      <trkpt lat="45.62612" lon="6.22861">
        <ele>1745</ele>
        <time>2021-10-09T15:05:58Z</time>
      </trkpt>
      <trkpt lat="45.62607" lon="6.22863">
        <ele>1742</ele>
        <time>2021-10-09T15:06:09Z</time>
      </trkpt>
      <trkpt lat="45.62604" lon="6.22868">
        <ele>1739</ele>
        <time>2021-10-09T15:06:17Z</time>
      </trkpt>
      <trkpt lat="45.62604" lon="6.22874">
        <ele>1737</ele>
        <time>2021-10-09T15:06:20Z</time>
      </trkpt>
      <trkpt lat="45.626" lon="6.2287">
        <ele>1734</ele>
        <time>2021-10-09T15:06:30Z</time>
      </trkpt>
      <trkpt lat="45.62598" lon="6.22864">
        <ele>1733</ele>
        <time>2021-10-09T15:06:33Z</time>
      </trkpt>
      <trkpt lat="45.62595" lon="6.22859">
        <ele>1731</ele>
        <time>2021-10-09T15:06:37Z</time>
      </trkpt>
      <trkpt lat="45.62591" lon="6.22864">
        <ele>1729</ele>
        <time>2021-10-09T15:06:42Z</time>
      </trkpt>
      <trkpt lat="45.62583" lon="6.22856">
        <ele>1726</ele>
        <time>2021-10-09T15:06:52Z</time>
      </trkpt>
      <trkpt lat="45.62579" lon="6.22859">
        <ele>1725</ele>
        <time>2021-10-09T15:06:55Z</time>
      </trkpt>
      <trkpt lat="45.62578" lon="6.22871">
        <ele>1723</ele>
        <time>2021-10-09T15:07:01Z</time>
      </trkpt>
      <trkpt lat="45.62574" lon="6.22877">
        <ele>1720</ele>
        <time>2021-10-09T15:07:08Z</time>
      </trkpt>
      <trkpt lat="45.62571" lon="6.22874">
        <ele>1719</ele>
        <time>2021-10-09T15:07:13Z</time>
      </trkpt>
      <trkpt lat="45.62567" lon="6.22871">
        <ele>1720</ele>
        <time>2021-10-09T15:07:16Z</time>
      </trkpt>
      <trkpt lat="45.62563" lon="6.22868">
        <ele>1719</ele>
        <time>2021-10-09T15:07:20Z</time>
      </trkpt>
      <trkpt lat="45.6256" lon="6.22866">
        <ele>1717</ele>
        <time>2021-10-09T15:07:24Z</time>
      </trkpt>
      <trkpt lat="45.62556" lon="6.22867">
        <ele>1716</ele>
        <time>2021-10-09T15:07:27Z</time>
      </trkpt>
      <trkpt lat="45.62538" lon="6.2286">
        <ele>1710</ele>
        <time>2021-10-09T15:07:44Z</time>
      </trkpt>
      <trkpt lat="45.62529" lon="6.22845">
        <ele>1704</ele>
        <time>2021-10-09T15:08:00Z</time>
      </trkpt>
      <trkpt lat="45.62519" lon="6.22833">
        <ele>1699</ele>
        <time>2021-10-09T15:08:10Z</time>
      </trkpt>
      <trkpt lat="45.62516" lon="6.22829">
        <ele>1698</ele>
        <time>2021-10-09T15:08:13Z</time>
      </trkpt>
      <trkpt lat="45.62514" lon="6.2282">
        <ele>1696</ele>
        <time>2021-10-09T15:08:18Z</time>
      </trkpt>
      <trkpt lat="45.6251" lon="6.22815">
        <ele>1694</ele>
        <time>2021-10-09T15:08:22Z</time>
      </trkpt>
      <trkpt lat="45.62506" lon="6.22802">
        <ele>1690</ele>
        <time>2021-10-09T15:08:29Z</time>
      </trkpt>
      <trkpt lat="45.62503" lon="6.22797">
        <ele>1689</ele>
        <time>2021-10-09T15:08:32Z</time>
      </trkpt>
      <trkpt lat="45.625" lon="6.22794">
        <ele>1687</ele>
        <time>2021-10-09T15:08:35Z</time>
      </trkpt>
      <trkpt lat="45.62496" lon="6.22792">
        <ele>1686</ele>
        <time>2021-10-09T15:08:38Z</time>
      </trkpt>
      <trkpt lat="45.62489" lon="6.22792">
        <ele>1684</ele>
        <time>2021-10-09T15:08:43Z</time>
      </trkpt>
      <trkpt lat="45.62485" lon="6.22789">
        <ele>1682</ele>
        <time>2021-10-09T15:08:46Z</time>
      </trkpt>
      <trkpt lat="45.62481" lon="6.22788">
        <ele>1681</ele>
        <time>2021-10-09T15:08:49Z</time>
      </trkpt>
      <trkpt lat="45.62477" lon="6.22785">
        <ele>1680</ele>
        <time>2021-10-09T15:08:52Z</time>
      </trkpt>
      <trkpt lat="45.62447" lon="6.22781">
        <ele>1669</ele>
        <time>2021-10-09T15:09:16Z</time>
      </trkpt>
      <trkpt lat="45.62443" lon="6.22782">
        <ele>1668</ele>
        <time>2021-10-09T15:09:19Z</time>
      </trkpt>
      <trkpt lat="45.62425" lon="6.22794">
        <ele>1663</ele>
        <time>2021-10-09T15:09:32Z</time>
      </trkpt>
      <trkpt lat="45.62415" lon="6.22784">
        <ele>1659</ele>
        <time>2021-10-09T15:09:48Z</time>
      </trkpt>
      <trkpt lat="45.62415" lon="6.22774">
        <ele>1657</ele>
        <time>2021-10-09T15:09:55Z</time>
      </trkpt>
      <trkpt lat="45.62413" lon="6.22766">
        <ele>1657</ele>
        <time>2021-10-09T15:10:00Z</time>
      </trkpt>
      <trkpt lat="45.62412" lon="6.22756">
        <ele>1660</ele>
        <time>2021-10-09T15:10:07Z</time>
      </trkpt>
      <trkpt lat="45.62408" lon="6.2275">
        <ele>1660</ele>
        <time>2021-10-09T15:10:11Z</time>
      </trkpt>
      <trkpt lat="45.62399" lon="6.2274">
        <ele>1661</ele>
        <time>2021-10-09T15:10:20Z</time>
      </trkpt>
      <trkpt lat="45.62397" lon="6.22733">
        <ele>1662</ele>
        <time>2021-10-09T15:10:25Z</time>
      </trkpt>
      <trkpt lat="45.62396" lon="6.22727">
        <ele>1661</ele>
        <time>2021-10-09T15:10:29Z</time>
      </trkpt>
      <trkpt lat="45.62396" lon="6.22719">
        <ele>1660</ele>
        <time>2021-10-09T15:10:34Z</time>
      </trkpt>
      <trkpt lat="45.62394" lon="6.22706">
        <ele>1661</ele>
        <time>2021-10-09T15:10:37Z</time>
      </trkpt>
      <trkpt lat="45.62397" lon="6.22699">
        <ele>1662</ele>
        <time>2021-10-09T15:10:39Z</time>
      </trkpt>
      <trkpt lat="45.62396" lon="6.22693">
        <ele>1662</ele>
        <time>2021-10-09T15:10:41Z</time>
      </trkpt>
      <trkpt lat="45.62394" lon="6.2268">
        <ele>1662</ele>
        <time>2021-10-09T15:10:45Z</time>
      </trkpt>
      <trkpt lat="45.62391" lon="6.22664">
        <ele>1660</ele>
        <time>2021-10-09T15:10:51Z</time>
      </trkpt>
      <trkpt lat="45.62388" lon="6.22658">
        <ele>1662</ele>
        <time>2021-10-09T15:10:56Z</time>
      </trkpt>
      <trkpt lat="45.62386" lon="6.22651">
        <ele>1660</ele>
        <time>2021-10-09T15:10:59Z</time>
      </trkpt>
      <trkpt lat="45.62385" lon="6.22646">
        <ele>1660</ele>
        <time>2021-10-09T15:11:02Z</time>
      </trkpt>
      <trkpt lat="45.62381" lon="6.22639">
        <ele>1660</ele>
        <time>2021-10-09T15:11:08Z</time>
      </trkpt>
      <trkpt lat="45.62378" lon="6.22631">
        <ele>1663</ele>
        <time>2021-10-09T15:11:13Z</time>
      </trkpt>
      <trkpt lat="45.62376" lon="6.22626">
        <ele>1661</ele>
        <time>2021-10-09T15:11:16Z</time>
      </trkpt>
      <trkpt lat="45.62373" lon="6.22619">
        <ele>1661</ele>
        <time>2021-10-09T15:11:20Z</time>
      </trkpt>
      <trkpt lat="45.62373" lon="6.22613">
        <ele>1660</ele>
        <time>2021-10-09T15:11:23Z</time>
      </trkpt>
      <trkpt lat="45.62372" lon="6.22608">
        <ele>1660</ele>
        <time>2021-10-09T15:11:27Z</time>
      </trkpt>
      <trkpt lat="45.62372" lon="6.22602">
        <ele>1660</ele>
        <time>2021-10-09T15:11:30Z</time>
      </trkpt>
      <trkpt lat="45.62371" lon="6.22594">
        <ele>1658</ele>
        <time>2021-10-09T15:11:35Z</time>
      </trkpt>
      <trkpt lat="45.62372" lon="6.22587">
        <ele>1658</ele>
        <time>2021-10-09T15:11:38Z</time>
      </trkpt>
      <trkpt lat="45.62372" lon="6.22581">
        <ele>1658</ele>
        <time>2021-10-09T15:11:42Z</time>
      </trkpt>
      <trkpt lat="45.62376" lon="6.22561">
        <ele>1655</ele>
        <time>2021-10-09T15:11:51Z</time>
      </trkpt>
      <trkpt lat="45.62374" lon="6.22554">
        <ele>1654</ele>
        <time>2021-10-09T15:11:55Z</time>
      </trkpt>
      <trkpt lat="45.62373" lon="6.22543">
        <ele>1652</ele>
        <time>2021-10-09T15:11:59Z</time>
      </trkpt>
      <trkpt lat="45.62376" lon="6.2253">
        <ele>1650</ele>
        <time>2021-10-09T15:12:05Z</time>
      </trkpt>
      <trkpt lat="45.62375" lon="6.22522">
        <ele>1648</ele>
        <time>2021-10-09T15:12:09Z</time>
      </trkpt>
      <trkpt lat="45.6237" lon="6.22455">
        <ele>1641</ele>
        <time>2021-10-09T15:12:37Z</time>
      </trkpt>
      <trkpt lat="45.62366" lon="6.22445">
        <ele>1640</ele>
        <time>2021-10-09T15:12:41Z</time>
      </trkpt>
      <trkpt lat="45.62363" lon="6.22441">
        <ele>1639</ele>
        <time>2021-10-09T15:12:44Z</time>
      </trkpt>
      <trkpt lat="45.62362" lon="6.22435">
        <ele>1639</ele>
        <time>2021-10-09T15:12:47Z</time>
      </trkpt>
      <trkpt lat="45.62357" lon="6.22432">
        <ele>1638</ele>
        <time>2021-10-09T15:12:50Z</time>
      </trkpt>
      <trkpt lat="45.62354" lon="6.22418">
        <ele>1635</ele>
        <time>2021-10-09T15:12:58Z</time>
      </trkpt>
      <trkpt lat="45.62356" lon="6.22373">
        <ele>1628</ele>
        <time>2021-10-09T15:13:13Z</time>
      </trkpt>
      <trkpt lat="45.62349" lon="6.22335">
        <ele>1619</ele>
        <time>2021-10-09T15:13:33Z</time>
      </trkpt>
      <trkpt lat="45.62345" lon="6.22329">
        <ele>1618</ele>
        <time>2021-10-09T15:13:36Z</time>
      </trkpt>
      <trkpt lat="45.6234" lon="6.22324">
        <ele>1618</ele>
        <time>2021-10-09T15:13:39Z</time>
      </trkpt>
      <trkpt lat="45.62332" lon="6.22319">
        <ele>1615</ele>
        <time>2021-10-09T15:13:44Z</time>
      </trkpt>
      <trkpt lat="45.62328" lon="6.22314">
        <ele>1615</ele>
        <time>2021-10-09T15:13:47Z</time>
      </trkpt>
      <trkpt lat="45.62324" lon="6.22313">
        <ele>1614</ele>
        <time>2021-10-09T15:13:50Z</time>
      </trkpt>
      <trkpt lat="45.62321" lon="6.22309">
        <ele>1613</ele>
        <time>2021-10-09T15:13:52Z</time>
      </trkpt>
      <trkpt lat="45.62305" lon="6.22295">
        <ele>1607</ele>
        <time>2021-10-09T15:14:06Z</time>
      </trkpt>
      <trkpt lat="45.62289" lon="6.22265">
        <ele>1600</ele>
        <time>2021-10-09T15:14:26Z</time>
      </trkpt>
      <trkpt lat="45.62305" lon="6.22272">
        <ele>1594</ele>
        <time>2021-10-09T15:14:43Z</time>
      </trkpt>
      <trkpt lat="45.62312" lon="6.22275">
        <ele>1593</ele>
        <time>2021-10-09T15:14:47Z</time>
      </trkpt>
      <trkpt lat="45.62319" lon="6.22274">
        <ele>1591</ele>
        <time>2021-10-09T15:14:53Z</time>
      </trkpt>
      <trkpt lat="45.62324" lon="6.22272">
        <ele>1591</ele>
        <time>2021-10-09T15:14:56Z</time>
      </trkpt>
      <trkpt lat="45.6234" lon="6.22262">
        <ele>1586</ele>
        <time>2021-10-09T15:15:09Z</time>
      </trkpt>
      <trkpt lat="45.62352" lon="6.2226">
        <ele>1583</ele>
        <time>2021-10-09T15:15:18Z</time>
      </trkpt>
      <trkpt lat="45.62378" lon="6.22229">
        <ele>1570</ele>
        <time>2021-10-09T15:15:56Z</time>
      </trkpt>
      <trkpt lat="45.62389" lon="6.22225">
        <ele>1568</ele>
        <time>2021-10-09T15:16:03Z</time>
      </trkpt>
      <trkpt lat="45.62392" lon="6.22218">
        <ele>1566</ele>
        <time>2021-10-09T15:16:08Z</time>
      </trkpt>
      <trkpt lat="45.62393" lon="6.2221">
        <ele>1565</ele>
        <time>2021-10-09T15:16:12Z</time>
      </trkpt>
      <trkpt lat="45.62403" lon="6.2219">
        <ele>1560</ele>
        <time>2021-10-09T15:16:31Z</time>
      </trkpt>
      <trkpt lat="45.62416" lon="6.22182">
        <ele>1557</ele>
        <time>2021-10-09T15:16:44Z</time>
      </trkpt>
      <trkpt lat="45.62423" lon="6.22182">
        <ele>1554</ele>
        <time>2021-10-09T15:16:50Z</time>
      </trkpt>
      <trkpt lat="45.62428" lon="6.22183">
        <ele>1555</ele>
        <time>2021-10-09T15:16:54Z</time>
      </trkpt>
      <trkpt lat="45.6243" lon="6.22173">
        <ele>1553</ele>
        <time>2021-10-09T15:16:59Z</time>
      </trkpt>
      <trkpt lat="45.62429" lon="6.22167">
        <ele>1551</ele>
        <time>2021-10-09T15:17:02Z</time>
      </trkpt>
      <trkpt lat="45.62427" lon="6.22163">
        <ele>1551</ele>
        <time>2021-10-09T15:17:04Z</time>
      </trkpt>
      <trkpt lat="45.62421" lon="6.22155">
        <ele>1549</ele>
        <time>2021-10-09T15:17:09Z</time>
      </trkpt>
      <trkpt lat="45.62416" lon="6.22154">
        <ele>1548</ele>
        <time>2021-10-09T15:17:12Z</time>
      </trkpt>
      <trkpt lat="45.62413" lon="6.2215">
        <ele>1548</ele>
        <time>2021-10-09T15:17:14Z</time>
      </trkpt>
      <trkpt lat="45.62404" lon="6.22148">
        <ele>1546</ele>
        <time>2021-10-09T15:17:22Z</time>
      </trkpt>
      <trkpt lat="45.62397" lon="6.2215">
        <ele>1545</ele>
        <time>2021-10-09T15:17:26Z</time>
      </trkpt>
      <trkpt lat="45.62392" lon="6.22154">
        <ele>1544</ele>
        <time>2021-10-09T15:17:30Z</time>
      </trkpt>
      <trkpt lat="45.6239" lon="6.22162">
        <ele>1543</ele>
        <time>2021-10-09T15:17:35Z</time>
      </trkpt>
      <trkpt lat="45.62385" lon="6.22168">
        <ele>1542</ele>
        <time>2021-10-09T15:17:40Z</time>
      </trkpt>
      <trkpt lat="45.6238" lon="6.22171">
        <ele>1541</ele>
        <time>2021-10-09T15:17:44Z</time>
      </trkpt>
      <trkpt lat="45.62367" lon="6.22171">
        <ele>1538</ele>
        <time>2021-10-09T15:17:56Z</time>
      </trkpt>
      <trkpt lat="45.62361" lon="6.22171">
        <ele>1537</ele>
        <time>2021-10-09T15:18:01Z</time>
      </trkpt>
      <trkpt lat="45.62356" lon="6.22168">
        <ele>1536</ele>
        <time>2021-10-09T15:18:06Z</time>
      </trkpt>
      <trkpt lat="45.6235" lon="6.22162">
        <ele>1533</ele>
        <time>2021-10-09T15:18:15Z</time>
      </trkpt>
      <trkpt lat="45.62343" lon="6.22154">
        <ele>1530</ele>
        <time>2021-10-09T15:18:26Z</time>
      </trkpt>
      <trkpt lat="45.62336" lon="6.22148">
        <ele>1528</ele>
        <time>2021-10-09T15:18:34Z</time>
      </trkpt>
      <trkpt lat="45.62332" lon="6.22143">
        <ele>1526</ele>
        <time>2021-10-09T15:18:41Z</time>
      </trkpt>
      <trkpt lat="45.62326" lon="6.22129">
        <ele>1524</ele>
        <time>2021-10-09T15:18:47Z</time>
      </trkpt>
      <trkpt lat="45.62311" lon="6.22112">
        <ele>1519</ele>
        <time>2021-10-09T15:19:00Z</time>
      </trkpt>
      <trkpt lat="45.62307" lon="6.2211">
        <ele>1518</ele>
        <time>2021-10-09T15:19:03Z</time>
      </trkpt>
      <trkpt lat="45.62304" lon="6.22106">
        <ele>1517</ele>
        <time>2021-10-09T15:19:06Z</time>
      </trkpt>
      <trkpt lat="45.62303" lon="6.22097">
        <ele>1514</ele>
        <time>2021-10-09T15:19:11Z</time>
      </trkpt>
      <trkpt lat="45.623" lon="6.22092">
        <ele>1513</ele>
        <time>2021-10-09T15:19:15Z</time>
      </trkpt>
      <trkpt lat="45.62295" lon="6.22089">
        <ele>1511</ele>
        <time>2021-10-09T15:19:19Z</time>
      </trkpt>
      <trkpt lat="45.62293" lon="6.22085">
        <ele>1510</ele>
        <time>2021-10-09T15:19:22Z</time>
      </trkpt>
      <trkpt lat="45.62287" lon="6.2208">
        <ele>1509</ele>
        <time>2021-10-09T15:19:27Z</time>
      </trkpt>
      <trkpt lat="45.62286" lon="6.22075">
        <ele>1508</ele>
        <time>2021-10-09T15:19:29Z</time>
      </trkpt>
      <trkpt lat="45.62296" lon="6.22081">
        <ele>1503</ele>
        <time>2021-10-09T15:19:43Z</time>
      </trkpt>
      <trkpt lat="45.62302" lon="6.2208">
        <ele>1502</ele>
        <time>2021-10-09T15:19:48Z</time>
      </trkpt>
      <trkpt lat="45.6231" lon="6.22081">
        <ele>1500</ele>
        <time>2021-10-09T15:19:52Z</time>
      </trkpt>
      <trkpt lat="45.62333" lon="6.22075">
        <ele>1496</ele>
        <time>2021-10-09T15:20:09Z</time>
      </trkpt>
      <trkpt lat="45.62339" lon="6.22073">
        <ele>1496</ele>
        <time>2021-10-09T15:20:12Z</time>
      </trkpt>
      <trkpt lat="45.62344" lon="6.22073">
        <ele>1495</ele>
        <time>2021-10-09T15:20:16Z</time>
      </trkpt>
      <trkpt lat="45.62351" lon="6.22072">
        <ele>1493</ele>
        <time>2021-10-09T15:20:23Z</time>
      </trkpt>
      <trkpt lat="45.62365" lon="6.22063">
        <ele>1486</ele>
        <time>2021-10-09T15:20:41Z</time>
      </trkpt>
      <trkpt lat="45.62372" lon="6.22062">
        <ele>1485</ele>
        <time>2021-10-09T15:20:46Z</time>
      </trkpt>
      <trkpt lat="45.62377" lon="6.22058">
        <ele>1483</ele>
        <time>2021-10-09T15:20:51Z</time>
      </trkpt>
      <trkpt lat="45.62375" lon="6.22049">
        <ele>1481</ele>
        <time>2021-10-09T15:20:57Z</time>
      </trkpt>
      <trkpt lat="45.62357" lon="6.22039">
        <ele>1478</ele>
        <time>2021-10-09T15:21:09Z</time>
      </trkpt>
      <trkpt lat="45.62353" lon="6.22034">
        <ele>1477</ele>
        <time>2021-10-09T15:21:13Z</time>
      </trkpt>
      <trkpt lat="45.62347" lon="6.2203">
        <ele>1475</ele>
        <time>2021-10-09T15:21:18Z</time>
      </trkpt>
      <trkpt lat="45.62336" lon="6.22028">
        <ele>1474</ele>
        <time>2021-10-09T15:21:25Z</time>
      </trkpt>
      <trkpt lat="45.62318" lon="6.22004">
        <ele>1468</ele>
        <time>2021-10-09T15:21:46Z</time>
      </trkpt>
      <trkpt lat="45.62311" lon="6.21999">
        <ele>1466</ele>
        <time>2021-10-09T15:21:54Z</time>
      </trkpt>
      <trkpt lat="45.62305" lon="6.21985">
        <ele>1463</ele>
        <time>2021-10-09T15:22:06Z</time>
      </trkpt>
      <trkpt lat="45.62294" lon="6.21973">
        <ele>1459</ele>
        <time>2021-10-09T15:22:20Z</time>
      </trkpt>
      <trkpt lat="45.62286" lon="6.2196">
        <ele>1456</ele>
        <time>2021-10-09T15:22:30Z</time>
      </trkpt>
      <trkpt lat="45.62315" lon="6.21963">
        <ele>1449</ele>
        <time>2021-10-09T15:22:57Z</time>
      </trkpt>
      <trkpt lat="45.62322" lon="6.2196">
        <ele>1448</ele>
        <time>2021-10-09T15:23:01Z</time>
      </trkpt>
      <trkpt lat="45.62351" lon="6.21957">
        <ele>1443</ele>
        <time>2021-10-09T15:23:22Z</time>
      </trkpt>
      <trkpt lat="45.62359" lon="6.21953">
        <ele>1440</ele>
        <time>2021-10-09T15:23:31Z</time>
      </trkpt>
      <trkpt lat="45.62364" lon="6.21942">
        <ele>1438</ele>
        <time>2021-10-09T15:23:40Z</time>
      </trkpt>
      <trkpt lat="45.62381" lon="6.21921">
        <ele>1429</ele>
        <time>2021-10-09T15:24:06Z</time>
      </trkpt>
      <trkpt lat="45.62345" lon="6.21902">
        <ele>1421</ele>
        <time>2021-10-09T15:24:42Z</time>
      </trkpt>
      <trkpt lat="45.62339" lon="6.21898">
        <ele>1420</ele>
        <time>2021-10-09T15:24:45Z</time>
      </trkpt>
      <trkpt lat="45.62332" lon="6.21892">
        <ele>1419</ele>
        <time>2021-10-09T15:24:49Z</time>
      </trkpt>
      <trkpt lat="45.62318" lon="6.21879">
        <ele>1416</ele>
        <time>2021-10-09T15:24:58Z</time>
      </trkpt>
      <trkpt lat="45.62305" lon="6.21864">
        <ele>1412</ele>
        <time>2021-10-09T15:25:08Z</time>
      </trkpt>
      <trkpt lat="45.62295" lon="6.21858">
        <ele>1409</ele>
        <time>2021-10-09T15:25:17Z</time>
      </trkpt>
      <trkpt lat="45.62293" lon="6.2185">
        <ele>1406</ele>
        <time>2021-10-09T15:25:24Z</time>
      </trkpt>
      <trkpt lat="45.62293" lon="6.21841">
        <ele>1405</ele>
        <time>2021-10-09T15:25:30Z</time>
      </trkpt>
      <trkpt lat="45.62288" lon="6.21834">
        <ele>1402</ele>
        <time>2021-10-09T15:25:36Z</time>
      </trkpt>
      <trkpt lat="45.62282" lon="6.21834">
        <ele>1398</ele>
        <time>2021-10-09T15:25:50Z</time>
      </trkpt>
      <trkpt lat="45.62262" lon="6.21815">
        <ele>1390</ele>
        <time>2021-10-09T15:26:22Z</time>
      </trkpt>
      <trkpt lat="45.62258" lon="6.21806">
        <ele>1388</ele>
        <time>2021-10-09T15:26:32Z</time>
      </trkpt>
      <trkpt lat="45.62252" lon="6.21801">
        <ele>1386</ele>
        <time>2021-10-09T15:26:39Z</time>
      </trkpt>
      <trkpt lat="45.62247" lon="6.21795">
        <ele>1384</ele>
        <time>2021-10-09T15:26:44Z</time>
      </trkpt>
      <trkpt lat="45.62239" lon="6.21781">
        <ele>1384</ele>
        <time>2021-10-09T15:26:54Z</time>
      </trkpt>
      <trkpt lat="45.62235" lon="6.21776">
        <ele>1384</ele>
        <time>2021-10-09T15:26:58Z</time>
      </trkpt>
      <trkpt lat="45.62229" lon="6.21771">
        <ele>1384</ele>
        <time>2021-10-09T15:27:04Z</time>
      </trkpt>
      <trkpt lat="45.62222" lon="6.21764">
        <ele>1384</ele>
        <time>2021-10-09T15:27:08Z</time>
      </trkpt>
      <trkpt lat="45.62217" lon="6.21761">
        <ele>1384</ele>
        <time>2021-10-09T15:27:12Z</time>
      </trkpt>
      <trkpt lat="45.62203" lon="6.21739">
        <ele>1379</ele>
        <time>2021-10-09T15:27:31Z</time>
      </trkpt>
      <trkpt lat="45.62182" lon="6.21728">
        <ele>1375</ele>
        <time>2021-10-09T15:27:50Z</time>
      </trkpt>
      <trkpt lat="45.62176" lon="6.21722">
        <ele>1374</ele>
        <time>2021-10-09T15:27:55Z</time>
      </trkpt>
      <trkpt lat="45.6217" lon="6.21712">
        <ele>1373</ele>
        <time>2021-10-09T15:28:05Z</time>
      </trkpt>
      <trkpt lat="45.62166" lon="6.21705">
        <ele>1374</ele>
        <time>2021-10-09T15:28:09Z</time>
      </trkpt>
      <trkpt lat="45.62158" lon="6.217">
        <ele>1374</ele>
        <time>2021-10-09T15:28:14Z</time>
      </trkpt>
      <trkpt lat="45.62151" lon="6.21694">
        <ele>1374</ele>
        <time>2021-10-09T15:28:18Z</time>
      </trkpt>
      <trkpt lat="45.62144" lon="6.21687">
        <ele>1372</ele>
        <time>2021-10-09T15:28:24Z</time>
      </trkpt>
      <trkpt lat="45.62124" lon="6.21656">
        <ele>1368</ele>
        <time>2021-10-09T15:28:42Z</time>
      </trkpt>
      <trkpt lat="45.62116" lon="6.21649">
        <ele>1366</ele>
        <time>2021-10-09T15:28:46Z</time>
      </trkpt>
      <trkpt lat="45.6209" lon="6.21607">
        <ele>1363</ele>
        <time>2021-10-09T15:29:08Z</time>
      </trkpt>
      <trkpt lat="45.62065" lon="6.21574">
        <ele>1353</ele>
        <time>2021-10-09T15:29:41Z</time>
      </trkpt>
      <trkpt lat="45.62052" lon="6.21567">
        <ele>1348</ele>
        <time>2021-10-09T15:29:57Z</time>
      </trkpt>
      <trkpt lat="45.62028" lon="6.2156">
        <ele>1343</ele>
        <time>2021-10-09T15:30:10Z</time>
      </trkpt>
      <trkpt lat="45.62044" lon="6.21545">
        <ele>1334</ele>
        <time>2021-10-09T15:30:40Z</time>
      </trkpt>
      <trkpt lat="45.62062" lon="6.21532">
        <ele>1327</ele>
        <time>2021-10-09T15:31:03Z</time>
      </trkpt>
      <trkpt lat="45.62088" lon="6.21533">
        <ele>1318</ele>
        <time>2021-10-09T15:31:31Z</time>
      </trkpt>
      <trkpt lat="45.62101" lon="6.21543">
        <ele>1313</ele>
        <time>2021-10-09T15:31:46Z</time>
      </trkpt>
      <trkpt lat="45.62132" lon="6.21554">
        <ele>1299</ele>
        <time>2021-10-09T15:32:29Z</time>
      </trkpt>
      <trkpt lat="45.62178" lon="6.21548">
        <ele>1281</ele>
        <time>2021-10-09T15:33:26Z</time>
      </trkpt>
      <trkpt lat="45.622" lon="6.21554">
        <ele>1271</ele>
        <time>2021-10-09T15:33:58Z</time>
      </trkpt>
      <trkpt lat="45.62237" lon="6.21548">
        <ele>1261</ele>
        <time>2021-10-09T15:34:37Z</time>
      </trkpt>
      <trkpt lat="45.62246" lon="6.21544">
        <ele>1257</ele>
        <time>2021-10-09T15:34:50Z</time>
      </trkpt>
      <trkpt lat="45.62255" lon="6.21542">
        <ele>1254</ele>
        <time>2021-10-09T15:34:59Z</time>
      </trkpt>
      <trkpt lat="45.6226" lon="6.21544">
        <ele>1250</ele>
        <time>2021-10-09T15:35:14Z</time>
      </trkpt>
      <trkpt lat="45.6227" lon="6.2154">
        <ele>1246</ele>
        <time>2021-10-09T15:35:28Z</time>
      </trkpt>
      <trkpt lat="45.62275" lon="6.21538">
        <ele>1245</ele>
        <time>2021-10-09T15:35:34Z</time>
      </trkpt>
      <trkpt lat="45.62301" lon="6.2153">
        <ele>1236</ele>
        <time>2021-10-09T15:36:04Z</time>
      </trkpt>
      <trkpt lat="45.62307" lon="6.21522">
        <ele>1234</ele>
        <time>2021-10-09T15:36:11Z</time>
      </trkpt>
      <trkpt lat="45.62315" lon="6.21524">
        <ele>1230</ele>
        <time>2021-10-09T15:36:24Z</time>
      </trkpt>
      <trkpt lat="45.6232" lon="6.21519">
        <ele>1230</ele>
        <time>2021-10-09T15:36:30Z</time>
      </trkpt>
      <trkpt lat="45.62326" lon="6.21516">
        <ele>1228</ele>
        <time>2021-10-09T15:36:43Z</time>
      </trkpt>
      <trkpt lat="45.6233" lon="6.21508">
        <ele>1226</ele>
        <time>2021-10-09T15:36:48Z</time>
      </trkpt>
      <trkpt lat="45.62333" lon="6.21499">
        <ele>1224</ele>
        <time>2021-10-09T15:36:58Z</time>
      </trkpt>
      <trkpt lat="45.62348" lon="6.21487">
        <ele>1218</ele>
        <time>2021-10-09T15:37:17Z</time>
      </trkpt>
      <trkpt lat="45.62352" lon="6.21477">
        <ele>1214</ele>
        <time>2021-10-09T15:37:35Z</time>
      </trkpt>
      <trkpt lat="45.62357" lon="6.21473">
        <ele>1212</ele>
        <time>2021-10-09T15:37:41Z</time>
      </trkpt>
      <trkpt lat="45.62362" lon="6.21466">
        <ele>1210</ele>
        <time>2021-10-09T15:37:49Z</time>
      </trkpt>
      <trkpt lat="45.62369" lon="6.2146">
        <ele>1207</ele>
        <time>2021-10-09T15:38:00Z</time>
      </trkpt>
      <trkpt lat="45.62376" lon="6.21458">
        <ele>1205</ele>
        <time>2021-10-09T15:38:07Z</time>
      </trkpt>
      <trkpt lat="45.62392" lon="6.21443">
        <ele>1198</ele>
        <time>2021-10-09T15:38:29Z</time>
      </trkpt>
      <trkpt lat="45.624" lon="6.21441">
        <ele>1194</ele>
        <time>2021-10-09T15:38:42Z</time>
      </trkpt>
      <trkpt lat="45.6241" lon="6.2144">
        <ele>1191</ele>
        <time>2021-10-09T15:38:53Z</time>
      </trkpt>
      <trkpt lat="45.62416" lon="6.21442">
        <ele>1190</ele>
        <time>2021-10-09T15:38:57Z</time>
      </trkpt>
      <trkpt lat="45.62422" lon="6.2144">
        <ele>1189</ele>
        <time>2021-10-09T15:39:02Z</time>
      </trkpt>
      <trkpt lat="45.62429" lon="6.21436">
        <ele>1186</ele>
        <time>2021-10-09T15:39:12Z</time>
      </trkpt>
      <trkpt lat="45.62458" lon="6.21424">
        <ele>1178</ele>
        <time>2021-10-09T15:39:48Z</time>
      </trkpt>
      <trkpt lat="45.62482" lon="6.21396">
        <ele>1170</ele>
        <time>2021-10-09T15:40:23Z</time>
      </trkpt>
      <trkpt lat="45.62496" lon="6.21383">
        <ele>1167</ele>
        <time>2021-10-09T15:40:38Z</time>
      </trkpt>
      <trkpt lat="45.62501" lon="6.21373">
        <ele>1165</ele>
        <time>2021-10-09T15:40:44Z</time>
      </trkpt>
      <trkpt lat="45.62504" lon="6.21362">
        <ele>1163</ele>
        <time>2021-10-09T15:40:49Z</time>
      </trkpt>
      <trkpt lat="45.62518" lon="6.21335">
        <ele>1158</ele>
        <time>2021-10-09T15:41:05Z</time>
      </trkpt>
      <trkpt lat="45.62519" lon="6.21324">
        <ele>1156</ele>
        <time>2021-10-09T15:41:09Z</time>
      </trkpt>
      <trkpt lat="45.62525" lon="6.21317">
        <ele>1155</ele>
        <time>2021-10-09T15:41:13Z</time>
      </trkpt>
      <trkpt lat="45.62531" lon="6.21312">
        <ele>1154</ele>
        <time>2021-10-09T15:41:16Z</time>
      </trkpt>
      <trkpt lat="45.62537" lon="6.21314">
        <ele>1153</ele>
        <time>2021-10-09T15:41:18Z</time>
      </trkpt>
      <trkpt lat="45.62543" lon="6.2131">
        <ele>1153</ele>
        <time>2021-10-09T15:41:22Z</time>
      </trkpt>
      <trkpt lat="45.62562" lon="6.21286">
        <ele>1146</ele>
        <time>2021-10-09T15:41:38Z</time>
      </trkpt>
      <trkpt lat="45.62566" lon="6.21277">
        <ele>1144</ele>
        <time>2021-10-09T15:41:42Z</time>
      </trkpt>
      <trkpt lat="45.62568" lon="6.21269">
        <ele>1144</ele>
        <time>2021-10-09T15:41:45Z</time>
      </trkpt>
      <trkpt lat="45.62592" lon="6.21216">
        <ele>1131</ele>
        <time>2021-10-09T15:42:17Z</time>
      </trkpt>
      <trkpt lat="45.62592" lon="6.21208">
        <ele>1130</ele>
        <time>2021-10-09T15:42:21Z</time>
      </trkpt>
      <trkpt lat="45.62596" lon="6.212">
        <ele>1128</ele>
        <time>2021-10-09T15:42:26Z</time>
      </trkpt>
      <trkpt lat="45.62602" lon="6.21174">
        <ele>1124</ele>
        <time>2021-10-09T15:42:38Z</time>
      </trkpt>
      <trkpt lat="45.62606" lon="6.21169">
        <ele>1121</ele>
        <time>2021-10-09T15:42:43Z</time>
      </trkpt>
      <trkpt lat="45.62608" lon="6.21161">
        <ele>1119</ele>
        <time>2021-10-09T15:42:47Z</time>
      </trkpt>
      <trkpt lat="45.62614" lon="6.21153">
        <ele>1117</ele>
        <time>2021-10-09T15:43:08Z</time>
      </trkpt>
      <trkpt lat="45.62629" lon="6.21119">
        <ele>1111</ele>
        <time>2021-10-09T15:43:24Z</time>
      </trkpt>
      <trkpt lat="45.62634" lon="6.21115">
        <ele>1109</ele>
        <time>2021-10-09T15:43:28Z</time>
      </trkpt>
      <trkpt lat="45.6264" lon="6.21102">
        <ele>1106</ele>
        <time>2021-10-09T15:43:35Z</time>
      </trkpt>
      <trkpt lat="45.62656" lon="6.21089">
        <ele>1103</ele>
        <time>2021-10-09T15:43:42Z</time>
      </trkpt>
      <trkpt lat="45.62661" lon="6.21084">
        <ele>1103</ele>
        <time>2021-10-09T15:43:45Z</time>
      </trkpt>
      <trkpt lat="45.62687" lon="6.21057">
        <ele>1099</ele>
        <time>2021-10-09T15:44:00Z</time>
      </trkpt>
      <trkpt lat="45.62746" lon="6.20989">
        <ele>1091</ele>
        <time>2021-10-09T15:44:31Z</time>
      </trkpt>
      <trkpt lat="45.62781" lon="6.20943">
        <ele>1087</ele>
        <time>2021-10-09T15:44:52Z</time>
      </trkpt>
      <trkpt lat="45.62786" lon="6.20936">
        <ele>1088</ele>
        <time>2021-10-09T15:44:55Z</time>
      </trkpt>
      <trkpt lat="45.62789" lon="6.20929">
        <ele>1087</ele>
        <time>2021-10-09T15:44:58Z</time>
      </trkpt>
      <trkpt lat="45.62799" lon="6.20914">
        <ele>1086</ele>
        <time>2021-10-09T15:45:04Z</time>
      </trkpt>
      <trkpt lat="45.62824" lon="6.20891">
        <ele>1082</ele>
        <time>2021-10-09T15:45:17Z</time>
      </trkpt>
      <trkpt lat="45.62829" lon="6.20886">
        <ele>1081</ele>
        <time>2021-10-09T15:45:20Z</time>
      </trkpt>
      <trkpt lat="45.62833" lon="6.20885">
        <ele>1080</ele>
        <time>2021-10-09T15:45:22Z</time>
      </trkpt>
      <trkpt lat="45.62843" lon="6.20879">
        <ele>1079</ele>
        <time>2021-10-09T15:45:28Z</time>
      </trkpt>
      <trkpt lat="45.62863" lon="6.20863">
        <ele>1077</ele>
        <time>2021-10-09T15:45:38Z</time>
      </trkpt>
      <trkpt lat="45.62868" lon="6.20859">
        <ele>1076</ele>
        <time>2021-10-09T15:45:41Z</time>
      </trkpt>
      <trkpt lat="45.62873" lon="6.20852">
        <ele>1075</ele>
        <time>2021-10-09T15:45:44Z</time>
      </trkpt>
      <trkpt lat="45.62886" lon="6.2081">
        <ele>1072</ele>
        <time>2021-10-09T15:45:58Z</time>
      </trkpt>
      <trkpt lat="45.62924" lon="6.20761">
        <ele>1064</ele>
        <time>2021-10-09T15:46:24Z</time>
      </trkpt>
      <trkpt lat="45.62929" lon="6.20757">
        <ele>1064</ele>
        <time>2021-10-09T15:46:27Z</time>
      </trkpt>
      <trkpt lat="45.62934" lon="6.20752">
        <ele>1063</ele>
        <time>2021-10-09T15:46:30Z</time>
      </trkpt>
      <trkpt lat="45.62939" lon="6.20748">
        <ele>1062</ele>
        <time>2021-10-09T15:46:33Z</time>
      </trkpt>
      <trkpt lat="45.62965" lon="6.20717">
        <ele>1059</ele>
        <time>2021-10-09T15:46:48Z</time>
      </trkpt>
      <trkpt lat="45.6297" lon="6.20711">
        <ele>1059</ele>
        <time>2021-10-09T15:46:51Z</time>
      </trkpt>
      <trkpt lat="45.62977" lon="6.20688">
        <ele>1056</ele>
        <time>2021-10-09T15:47:02Z</time>
      </trkpt>
      <trkpt lat="45.62999" lon="6.20677">
        <ele>1052</ele>
        <time>2021-10-09T15:47:16Z</time>
      </trkpt>
      <trkpt lat="45.63008" lon="6.20674">
        <ele>1052</ele>
        <time>2021-10-09T15:47:21Z</time>
      </trkpt>
      <trkpt lat="45.63014" lon="6.20674">
        <ele>1052</ele>
        <time>2021-10-09T15:47:25Z</time>
      </trkpt>
      <trkpt lat="45.6302" lon="6.20674">
        <ele>1052</ele>
        <time>2021-10-09T15:47:28Z</time>
      </trkpt>
      <trkpt lat="45.63026" lon="6.20671">
        <ele>1052</ele>
        <time>2021-10-09T15:47:30Z</time>
      </trkpt>
      <trkpt lat="45.63034" lon="6.20661">
        <ele>1051</ele>
        <time>2021-10-09T15:47:35Z</time>
      </trkpt>
      <trkpt lat="45.63039" lon="6.20654">
        <ele>1050</ele>
        <time>2021-10-09T15:47:38Z</time>
      </trkpt>
      <trkpt lat="45.63044" lon="6.20648">
        <ele>1050</ele>
        <time>2021-10-09T15:47:40Z</time>
      </trkpt>
      <trkpt lat="45.63048" lon="6.20642">
        <ele>1049</ele>
        <time>2021-10-09T15:47:42Z</time>
      </trkpt>
      <trkpt lat="45.63052" lon="6.20636">
        <ele>1048</ele>
        <time>2021-10-09T15:47:45Z</time>
      </trkpt>
      <trkpt lat="45.63057" lon="6.20634">
        <ele>1047</ele>
        <time>2021-10-09T15:47:49Z</time>
      </trkpt>
      <trkpt lat="45.63061" lon="6.20624">
        <ele>1047</ele>
        <time>2021-10-09T15:47:55Z</time>
      </trkpt>
      <trkpt lat="45.63068" lon="6.20609">
        <ele>1046</ele>
        <time>2021-10-09T15:48:01Z</time>
      </trkpt>
      <trkpt lat="45.63083" lon="6.20585">
        <ele>1042</ele>
        <time>2021-10-09T15:48:11Z</time>
      </trkpt>
      <trkpt lat="45.63084" lon="6.20574">
        <ele>1040</ele>
        <time>2021-10-09T15:48:14Z</time>
      </trkpt>
      <trkpt lat="45.63075" lon="6.20575">
        <ele>1039</ele>
        <time>2021-10-09T15:48:18Z</time>
      </trkpt>
      <trkpt lat="45.63069" lon="6.20579">
        <ele>1039</ele>
        <time>2021-10-09T15:48:21Z</time>
      </trkpt>
      <trkpt lat="45.6306" lon="6.20587">
        <ele>1039</ele>
        <time>2021-10-09T15:48:26Z</time>
      </trkpt>
      <trkpt lat="45.63054" lon="6.20589">
        <ele>1040</ele>
        <time>2021-10-09T15:48:29Z</time>
      </trkpt>
      <trkpt lat="45.63048" lon="6.2059">
        <ele>1038</ele>
        <time>2021-10-09T15:48:34Z</time>
      </trkpt>
      <trkpt lat="45.63031" lon="6.20597">
        <ele>1035</ele>
        <time>2021-10-09T15:48:47Z</time>
      </trkpt>
      <trkpt lat="45.63017" lon="6.20595">
        <ele>1034</ele>
        <time>2021-10-09T15:48:53Z</time>
      </trkpt>
      <trkpt lat="45.6301" lon="6.20596">
        <ele>1033</ele>
        <time>2021-10-09T15:48:57Z</time>
      </trkpt>
      <trkpt lat="45.63003" lon="6.20593">
        <ele>1032</ele>
        <time>2021-10-09T15:49:00Z</time>
      </trkpt>
      <trkpt lat="45.62958" lon="6.20587">
        <ele>1025</ele>
        <time>2021-10-09T15:49:23Z</time>
      </trkpt>
      <trkpt lat="45.62949" lon="6.20584">
        <ele>1023</ele>
        <time>2021-10-09T15:49:29Z</time>
      </trkpt>
      <trkpt lat="45.62941" lon="6.20569">
        <ele>1022</ele>
        <time>2021-10-09T15:49:39Z</time>
      </trkpt>
      <trkpt lat="45.62939" lon="6.2056">
        <ele>1021</ele>
        <time>2021-10-09T15:49:42Z</time>
      </trkpt>
      <trkpt lat="45.62947" lon="6.20552">
        <ele>1018</ele>
        <time>2021-10-09T15:49:51Z</time>
      </trkpt>
      <trkpt lat="45.62952" lon="6.20555">
        <ele>1017</ele>
        <time>2021-10-09T15:49:54Z</time>
      </trkpt>
      <trkpt lat="45.62956" lon="6.20561">
        <ele>1015</ele>
        <time>2021-10-09T15:49:57Z</time>
      </trkpt>
      <trkpt lat="45.62963" lon="6.20562">
        <ele>1014</ele>
        <time>2021-10-09T15:50:01Z</time>
      </trkpt>
      <trkpt lat="45.62968" lon="6.20558">
        <ele>1013</ele>
        <time>2021-10-09T15:50:04Z</time>
      </trkpt>
      <trkpt lat="45.62991" lon="6.20527">
        <ele>1007</ele>
        <time>2021-10-09T15:50:21Z</time>
      </trkpt>
      <trkpt lat="45.63005" lon="6.20497">
        <ele>1002</ele>
        <time>2021-10-09T15:50:35Z</time>
      </trkpt>
      <trkpt lat="45.6301" lon="6.20495">
        <ele>1002</ele>
        <time>2021-10-09T15:50:38Z</time>
      </trkpt>
      <trkpt lat="45.63026" lon="6.20482">
        <ele>999</ele>
        <time>2021-10-09T15:50:47Z</time>
      </trkpt>
      <trkpt lat="45.63052" lon="6.20461">
        <ele>997</ele>
        <time>2021-10-09T15:51:01Z</time>
      </trkpt>
      <trkpt lat="45.63058" lon="6.20455">
        <ele>995</ele>
        <time>2021-10-09T15:51:05Z</time>
      </trkpt>
      <trkpt lat="45.6308" lon="6.20405">
        <ele>991</ele>
        <time>2021-10-09T15:51:26Z</time>
      </trkpt>
      <trkpt lat="45.63086" lon="6.20382">
        <ele>990</ele>
        <time>2021-10-09T15:51:34Z</time>
      </trkpt>
      <trkpt lat="45.63115" lon="6.20332">
        <ele>984</ele>
        <time>2021-10-09T15:51:56Z</time>
      </trkpt>
      <trkpt lat="45.6312" lon="6.20329">
        <ele>984</ele>
        <time>2021-10-09T15:51:58Z</time>
      </trkpt>
      <trkpt lat="45.63149" lon="6.2031">
        <ele>980</ele>
        <time>2021-10-09T15:52:15Z</time>
      </trkpt>
      <trkpt lat="45.63153" lon="6.20304">
        <ele>979</ele>
        <time>2021-10-09T15:52:19Z</time>
      </trkpt>
      <trkpt lat="45.63158" lon="6.203">
        <ele>978</ele>
        <time>2021-10-09T15:52:23Z</time>
      </trkpt>
      <trkpt lat="45.63171" lon="6.20283">
        <ele>975</ele>
        <time>2021-10-09T15:52:34Z</time>
      </trkpt>
      <trkpt lat="45.6318" lon="6.20265">
        <ele>972</ele>
        <time>2021-10-09T15:52:43Z</time>
      </trkpt>
      <trkpt lat="45.63185" lon="6.20256">
        <ele>970</ele>
        <time>2021-10-09T15:52:48Z</time>
      </trkpt>
      <trkpt lat="45.63188" lon="6.20247">
        <ele>967</ele>
        <time>2021-10-09T15:52:55Z</time>
      </trkpt>
      <trkpt lat="45.63189" lon="6.20235">
        <ele>964</ele>
        <time>2021-10-09T15:53:02Z</time>
      </trkpt>
      <trkpt lat="45.63194" lon="6.2021">
        <ele>957</ele>
        <time>2021-10-09T15:53:19Z</time>
      </trkpt>
      <trkpt lat="45.63222" lon="6.20187">
        <ele>948</ele>
        <time>2021-10-09T15:53:47Z</time>
      </trkpt>
      <trkpt lat="45.63229" lon="6.20166">
        <ele>942</ele>
        <time>2021-10-09T15:54:09Z</time>
      </trkpt>
      <trkpt lat="45.6323" lon="6.20118">
        <ele>936</ele>
        <time>2021-10-09T15:54:30Z</time>
      </trkpt>
      <trkpt lat="45.63237" lon="6.20097">
        <ele>934</ele>
        <time>2021-10-09T15:54:38Z</time>
      </trkpt>
      <trkpt lat="45.63255" lon="6.20063">
        <ele>931</ele>
        <time>2021-10-09T15:54:56Z</time>
      </trkpt>
      <trkpt lat="45.63263" lon="6.20045">
        <ele>926</ele>
        <time>2021-10-09T15:55:07Z</time>
      </trkpt>
      <trkpt lat="45.63273" lon="6.20027">
        <ele>926</ele>
        <time>2021-10-09T15:55:16Z</time>
      </trkpt>
      <trkpt lat="45.6328" lon="6.20007">
        <ele>922</ele>
        <time>2021-10-09T15:55:25Z</time>
      </trkpt>
      <trkpt lat="45.63289" lon="6.19988">
        <ele>920</ele>
        <time>2021-10-09T15:55:31Z</time>
      </trkpt>
      <trkpt lat="45.63295" lon="6.19961">
        <ele>917</ele>
        <time>2021-10-09T15:55:39Z</time>
      </trkpt>
      <trkpt lat="45.63318" lon="6.19935">
        <ele>913</ele>
        <time>2021-10-09T15:55:55Z</time>
      </trkpt>
      <trkpt lat="45.63385" lon="6.19893">
        <ele>905</ele>
        <time>2021-10-09T15:56:26Z</time>
      </trkpt>
      <trkpt lat="45.63415" lon="6.19874">
        <ele>901</ele>
        <time>2021-10-09T15:56:43Z</time>
      </trkpt>
      <trkpt lat="45.63428" lon="6.1986">
        <ele>900</ele>
        <time>2021-10-09T15:56:50Z</time>
      </trkpt>
      <trkpt lat="45.63443" lon="6.19868">
        <ele>901</ele>
        <time>2021-10-09T15:56:58Z</time>
      </trkpt>
      <trkpt lat="45.63452" lon="6.19887">
        <ele>900</ele>
        <time>2021-10-09T15:57:06Z</time>
      </trkpt>
      <trkpt lat="45.63484" lon="6.19926">
        <ele>901</ele>
        <time>2021-10-09T15:57:26Z</time>
      </trkpt>
      <trkpt lat="45.63498" lon="6.19935">
        <ele>900</ele>
        <time>2021-10-09T15:57:32Z</time>
      </trkpt>
      <trkpt lat="45.63506" lon="6.1994">
        <ele>900</ele>
        <time>2021-10-09T15:57:36Z</time>
      </trkpt>
      <trkpt lat="45.63513" lon="6.19946">
        <ele>900</ele>
        <time>2021-10-09T15:57:40Z</time>
      </trkpt>
      <trkpt lat="45.63527" lon="6.19955">
        <ele>900</ele>
        <time>2021-10-09T15:57:47Z</time>
      </trkpt>
      <trkpt lat="45.6354" lon="6.19968">
        <ele>900</ele>
        <time>2021-10-09T15:57:54Z</time>
      </trkpt>
      <trkpt lat="45.63562" lon="6.19992">
        <ele>900</ele>
        <time>2021-10-09T15:58:07Z</time>
      </trkpt>
      <trkpt lat="45.63592" lon="6.20013">
        <ele>901</ele>
        <time>2021-10-09T15:58:25Z</time>
      </trkpt>
      <trkpt lat="45.63648" lon="6.20041">
        <ele>903</ele>
        <time>2021-10-09T15:58:59Z</time>
      </trkpt>
      <trkpt lat="45.63666" lon="6.20075">
        <ele>902</ele>
        <time>2021-10-09T15:59:19Z</time>
      </trkpt>
      <trkpt lat="45.63682" lon="6.20094">
        <ele>900</ele>
        <time>2021-10-09T15:59:29Z</time>
      </trkpt>
      <trkpt lat="45.6373" lon="6.20163">
        <ele>890</ele>
        <time>2021-10-09T16:00:03Z</time>
      </trkpt>
      <trkpt lat="45.63739" lon="6.20179">
        <ele>888</ele>
        <time>2021-10-09T16:00:11Z</time>
      </trkpt>
      <trkpt lat="45.63769" lon="6.2024">
        <ele>882</ele>
        <time>2021-10-09T16:00:36Z</time>
      </trkpt>
      <trkpt lat="45.63787" lon="6.20274">
        <ele>878</ele>
        <time>2021-10-09T16:00:51Z</time>
      </trkpt>
      <trkpt lat="45.63829" lon="6.20339">
        <ele>870</ele>
        <time>2021-10-09T16:01:20Z</time>
      </trkpt>
      <trkpt lat="45.63851" lon="6.20371">
        <ele>867</ele>
        <time>2021-10-09T16:01:32Z</time>
      </trkpt>
      <trkpt lat="45.63838" lon="6.20353">
        <ele>862</ele>
        <time>2021-10-09T16:03:15Z</time>
      </trkpt>
      <trkpt lat="45.63774" lon="6.20137">
        <ele>848</ele>
        <time>2021-10-09T16:03:36Z</time>
      </trkpt>
      <trkpt lat="45.63645" lon="6.19814">
        <ele>840</ele>
        <time>2021-10-09T16:04:04Z</time>
      </trkpt>
      <trkpt lat="45.63635" lon="6.19773">
        <ele>836</ele>
        <time>2021-10-09T16:04:08Z</time>
      </trkpt>
      <trkpt lat="45.63653" lon="6.19731">
        <ele>833</ele>
        <time>2021-10-09T16:04:12Z</time>
      </trkpt>
      <trkpt lat="45.63669" lon="6.1969">
        <ele>829</ele>
        <time>2021-10-09T16:04:16Z</time>
      </trkpt>
      <trkpt lat="45.63657" lon="6.19551">
        <ele>822</ele>
        <time>2021-10-09T16:04:26Z</time>
      </trkpt>
      <trkpt lat="45.63657" lon="6.19509">
        <ele>821</ele>
        <time>2021-10-09T16:04:29Z</time>
      </trkpt>
      <trkpt lat="45.63676" lon="6.19423">
        <ele>818</ele>
        <time>2021-10-09T16:04:36Z</time>
      </trkpt>
      <trkpt lat="45.63692" lon="6.19378">
        <ele>815</ele>
        <time>2021-10-09T16:04:40Z</time>
      </trkpt>
      <trkpt lat="45.63707" lon="6.19342">
        <ele>814</ele>
        <time>2021-10-09T16:04:43Z</time>
      </trkpt>
      <trkpt lat="45.63782" lon="6.19252">
        <ele>811</ele>
        <time>2021-10-09T16:04:52Z</time>
      </trkpt>
    </trkseg>
  </trk>
  <rte>
    <name><![CDATA[4 avr. 2019 à 23:11:12]]></name>
    <cmt><![CDATA[4 avr. 2019 à 23:11:12]]></cmt>
    <desc><![CDATA[{DC1}Heure de fin	: 
Durée totale	: 0h00:00
Moyenne globale	: -
Pente moyenne	: 0.00 %
Aire incluse	: 7.4932 ha
Détails par segments
distance  | durée    | vit.moy. | vit.max. | déniv. + | déniv -
   km     | hh:mn:ss |   km/h   |   km/h   |    m     |    m
     0.81 | 00:00:00 |      0.0 |      0.0 |        0 |        0{DC2}]]></desc>
      <rtept lat="45.60077" lon="6.18221">
        <ele>1608.6</ele>
      </rtept>
      <rtept lat="45.59468" lon="6.1822">
        <ele>1760.9</ele>
      </rtept>
      <rtept lat="45.59468" lon="6.1822">
        <ele>1760.9</ele>
      </rtept>
    </rte>
  <rte>
    <name><![CDATA[10 févr. 2019 à 15:16:12]]></name>
    <cmt><![CDATA[10 févr. 2019 à 15:16:12]]></cmt>
    <desc><![CDATA[{DC1}Heure de fin	: 00:09:21
Durée totale	: -17690439h43:48
Moyenne globale	: -
Pente moyenne	: 7.00 %
Aire incluse	: 221.0936 ha
Détails par segments
distance  | durée    | vit.moy. | vit.max. | déniv. + | déniv -
   km     | hh:mn:ss |   km/h   |   km/h   |    m     |    m
     7.48 | 00:00:00 |      0.0 |      0.0 |        0 |        0{DC2}]]></desc>
      <rtept lat="45.55203" lon="5.93805">
        <ele>376</ele>
      </rtept>
      <rtept lat="45.55177" lon="5.93873">
        <ele>369</ele>
      </rtept>
      <rtept lat="45.55176" lon="5.93942">
        <ele>367</ele>
      </rtept>
      <rtept lat="45.55105" lon="5.93942">
        <ele>367</ele>
      </rtept>
      <rtept lat="45.54993" lon="5.93908">
        <ele>371</ele>
      </rtept>
      <rtept lat="45.54929" lon="5.94099">
        <ele>370</ele>
      </rtept>
      <rtept lat="45.54908" lon="5.94204">
        <ele>367</ele>
      </rtept>
      <rtept lat="45.54991" lon="5.94287">
        <ele>365</ele>
      </rtept>
      <rtept lat="45.5506" lon="5.94384">
        <ele>361</ele>
      </rtept>
      <rtept lat="45.55147" lon="5.94384">
        <ele>357</ele>
      </rtept>
      <rtept lat="45.55129" lon="5.94607">
        <ele>358</ele>
      </rtept>
      <rtept lat="45.55029" lon="5.94809">
        <ele>355</ele>
      </rtept>
      <rtept lat="45.54884" lon="5.94886">
        <ele>346</ele>
      </rtept>
      <rtept lat="45.5477" lon="5.94931">
        <ele>342</ele>
      </rtept>
      <rtept lat="45.5468" lon="5.95004">
        <ele>339</ele>
      </rtept>
      <rtept lat="45.54596" lon="5.95133">
        <ele>340</ele>
      </rtept>
      <rtept lat="45.54446" lon="5.95195">
        <ele>343</ele>
      </rtept>
      <rtept lat="45.543" lon="5.95262">
        <ele>344</ele>
      </rtept>
      <rtept lat="45.54156" lon="5.95212">
        <ele>337</ele>
      </rtept>
      <rtept lat="45.54041" lon="5.95204">
        <ele>338</ele>
      </rtept>
      <rtept lat="45.53917" lon="5.95141">
        <ele>343</ele>
      </rtept>
      <rtept lat="45.53844" lon="5.95135">
        <ele>347</ele>
      </rtept>
      <rtept lat="45.53765" lon="5.9503">
        <ele>349</ele>
      </rtept>
      <rtept lat="45.5381" lon="5.94993">
        <ele>352</ele>
      </rtept>
      <rtept lat="45.53781" lon="5.94901">
        <ele>358</ele>
      </rtept>
      <rtept lat="45.53711" lon="5.94845">
        <ele>365</ele>
      </rtept>
      <rtept lat="45.53702" lon="5.94764">
        <ele>369</ele>
      </rtept>
      <rtept lat="45.53817" lon="5.94807">
        <ele>376</ele>
      </rtept>
      <rtept lat="45.53865" lon="5.94633">
        <ele>389</ele>
      </rtept>
      <rtept lat="45.53778" lon="5.94491">
        <ele>408</ele>
      </rtept>
      <rtept lat="45.53757" lon="5.94371">
        <ele>425</ele>
      </rtept>
      <rtept lat="45.53775" lon="5.94279">
        <ele>434</ele>
      </rtept>
      <rtept lat="45.53726" lon="5.94227">
        <ele>442</ele>
      </rtept>
      <rtept lat="45.53572" lon="5.94146">
        <ele>468</ele>
      </rtept>
      <rtept lat="45.53664" lon="5.94039">
        <ele>483</ele>
      </rtept>
      <rtept lat="45.53532" lon="5.93983">
        <ele>505</ele>
      </rtept>
      <rtept lat="45.53416" lon="5.93985">
        <ele>516</ele>
      </rtept>
      <rtept lat="45.5355" lon="5.93869">
        <ele>532</ele>
      </rtept>
      <rtept lat="45.5359" lon="5.93845">
        <ele>537</ele>
      </rtept>
      <rtept lat="45.5355" lon="5.93802">
        <ele>544</ele>
      </rtept>
      <rtept lat="45.53724" lon="5.93554">
        <ele>587</ele>
      </rtept>
      <rtept lat="45.53691" lon="5.93339">
        <ele>592</ele>
      </rtept>
      <rtept lat="45.5376" lon="5.93178">
        <ele>575</ele>
      </rtept>
      <rtept lat="45.53843" lon="5.93069">
        <ele>555</ele>
      </rtept>
      <rtept lat="45.53939" lon="5.93157">
        <ele>541</ele>
      </rtept>
      <rtept lat="45.54068" lon="5.93234">
        <ele>522</ele>
      </rtept>
      <rtept lat="45.54219" lon="5.93247">
        <ele>514</ele>
      </rtept>
      <rtept lat="45.54355" lon="5.93232">
        <ele>512</ele>
      </rtept>
      <rtept lat="45.54489" lon="5.9326">
        <ele>508</ele>
      </rtept>
      <rtept lat="45.54636" lon="5.93249">
        <ele>510</ele>
      </rtept>
      <rtept lat="45.54758" lon="5.93249">
        <ele>510</ele>
      </rtept>
      <rtept lat="45.54818" lon="5.93298">
        <ele>507</ele>
      </rtept>
      <rtept lat="45.54796" lon="5.93418">
        <ele>496</ele>
      </rtept>
      <rtept lat="45.5491" lon="5.93433">
        <ele>483</ele>
      </rtept>
      <rtept lat="45.55126" lon="5.9341">
        <ele>463</ele>
      </rtept>
      <rtept lat="45.55256" lon="5.93453">
        <ele>444</ele>
      </rtept>
      <rtept lat="45.55329" lon="5.93558">
        <ele>430</ele>
      </rtept>
      <rtept lat="45.55222" lon="5.93642">
        <ele>415</ele>
      </rtept>
      <rtept lat="45.55195" lon="5.93811">
        <ele>375</ele>
      </rtept>
    </rte>
  <rte>
    <name><![CDATA[10 févr. 2019 à 15:15:48]]></name>
    <cmt><![CDATA[10 févr. 2019 à 15:15:48]]></cmt>
    <desc><![CDATA[{DC1}Heure de fin	: 00:09:21
Durée totale	: -17690439h44:12
Moyenne globale	: -
Pente moyenne	: nan %
Aire incluse	: 0.0000 ha
Détails par segments
distance  | durée    | vit.moy. | vit.max. | déniv. + | déniv -
   km     | hh:mn:ss |   km/h   |   km/h   |    m     |    m
     0.00 | 00:00:00 |      0.0 |      0.0 |        0 |        0{DC2}]]></desc>
      <rtept lat="45.5175" lon="5.93483">
        <ele>732.3</ele>
      </rtept>
    </rte>
  <rte>
    <name><![CDATA[10 févr. 2019 à 15:06:08]]></name>
    <cmt><![CDATA[10 févr. 2019 à 15:06:08]]></cmt>
    <desc><![CDATA[{DC1}Heure de fin	: 
Durée totale	: 0h00:00
Moyenne globale	: -
Pente moyenne	: 8.03 %
Aire incluse	: 204.0794 ha
Détails par segments
distance  | durée    | vit.moy. | vit.max. | déniv. + | déniv -
   km     | hh:mn:ss |   km/h   |   km/h   |    m     |    m
    12.88 | 00:00:00 |      0.0 |      0.0 |        0 |        0{DC2}]]></desc>
      <rtept lat="45.5509" lon="5.9394">
        <ele>368</ele>
      </rtept>
      <rtept lat="45.55217" lon="5.93791">
        <ele>377</ele>
      </rtept>
    </rte>
  <rte>
    <name><![CDATA[10 févr. 2019 à 14:22:06]]></name>
    <cmt><![CDATA[10 févr. 2019 à 14:22:06]]></cmt>
    <desc><![CDATA[{DC1}Heure de fin	: 00:09:21
Durée totale	: -17690438h37:54
Moyenne globale	: -
Pente moyenne	: 5.62 %
Aire incluse	: 5.7967 ha
Détails par segments
distance  | durée    | vit.moy. | vit.max. | déniv. + | déniv -
   km     | hh:mn:ss |   km/h   |   km/h   |    m     |    m
     3.30 | 00:00:00 |      0.0 |      0.0 |        0 |        0{DC2}]]></desc>
      <rtept lat="45.55169" lon="5.93089">
        <ele>415</ele>
      </rtept>
      <rtept lat="45.5518" lon="5.93905">
        <ele>366</ele>
      </rtept>
    </rte>
  <rte>
    <name><![CDATA[10 févr. 2019 à 09:50:45]]></name>
    <cmt><![CDATA[10 févr. 2019 à 09:50:45]]></cmt>
    <desc><![CDATA[{DC1}Heure de fin	: 00:09:21
Durée totale	: -17690433h09:14
Moyenne globale	: -
Pente moyenne	: 0.00 %
Aire incluse	: 50.7119 ha
Détails par segments
distance  | durée    | vit.moy. | vit.max. | déniv. + | déniv -
   km     | hh:mn:ss |   km/h   |   km/h   |    m     |    m
     4.33 | 00:00:00 |      0.0 |      0.0 |        0 |        0{DC2}]]></desc>
      <rtept lat="45.5503" lon="5.93918">
        <ele>373.6</ele>
      </rtept>
      <rtept lat="45.55191" lon="5.93893">
        <ele>366.7</ele>
      </rtept>
    </rte>
  <rte>
    <name><![CDATA[10 févr. 2019 à 09:07:08]]></name>
    <cmt><![CDATA[10 févr. 2019 à 09:07:08]]></cmt>
    <desc><![CDATA[{DC1}Heure de fin	: 00:09:21
Durée totale	: -17690433h52:52
Moyenne globale	: -
Pente moyenne	: nan %
Aire incluse	: 0.0000 ha
Détails par segments
distance  | durée    | vit.moy. | vit.max. | déniv. + | déniv -
   km     | hh:mn:ss |   km/h   |   km/h   |    m     |    m
     0.00 | 00:00:00 |      0.0 |      0.0 |        0 |        0{DC2}]]></desc>
      <rtept lat="45.55102" lon="5.93919">
        <ele>370.1</ele>
      </rtept>
    </rte>
  <rte>
    <name><![CDATA[10 févr. 2019 à 09:02:25]]></name>
    <cmt><![CDATA[10 févr. 2019 à 09:02:25]]></cmt>
    <desc><![CDATA[{DC1}Heure de fin	: 00:09:21
Durée totale	: -17690433h57:35
Moyenne globale	: -
Pente moyenne	: nan %
Aire incluse	: 0.0000 ha
Détails par segments
distance  | durée    | vit.moy. | vit.max. | déniv. + | déniv -
   km     | hh:mn:ss |   km/h   |   km/h   |    m     |    m
     0.00 | 00:00:00 |      0.0 |      0.0 |        0 |        0{DC2}]]></desc>
      <rtept lat="45.55207" lon="5.93813">
        <ele>375.2</ele>
      </rtept>
    </rte>
  <rte>
    <name><![CDATA[10 févr. 2019 à 09:00:27]]></name>
    <cmt><![CDATA[10 févr. 2019 à 09:00:27]]></cmt>
    <desc><![CDATA[{DC1}Heure de fin	: 00:09:21
Durée totale	: -17690433h59:32
Moyenne globale	: -
Pente moyenne	: nan %
Aire incluse	: 0.0000 ha
Détails par segments
distance  | durée    | vit.moy. | vit.max. | déniv. + | déniv -
   km     | hh:mn:ss |   km/h   |   km/h   |    m     |    m
     0.00 | 00:00:00 |      0.0 |      0.0 |        0 |        0{DC2}]]></desc>
      <rtept lat="45.55244" lon="5.93858">
        <ele>366.6</ele>
      </rtept>
    </rte>
</gpx>